<?xml version="1.0" encoding="utf-8"?>
<gpx xmlns:xsi="http://www.w3.org/2001/XMLSchema-instance" xmlns:xsd="http://www.w3.org/2001/XMLSchema" version="1.1" creator="Shapelink.com" xmlns="http://www.topografix.com/GPX/1/1" xmlns:gpxtpx="http://www.garmin.com/xmlschemas/TrackPointExtension/v1">
  <metadata>
    <name>Sykling 10.01 km, 2017-09-05</name>
    <desc></desc>
    <author><name>Jörgen Larsson</name></author> 
    <time>2017-09-05T17:45:09Z</time>
  </metadata>
  <trk>
    <name>Sykling 10.01 km, 2017-09-05</name>
    <trkseg>
      <trkpt lat="59.20480801366" lon="17.754888764126">
        <ele>21.2</ele>
        <time>2017-09-05T17:45:09Z</time>
      </trkpt>
      <trkpt lat="59.204827040573" lon="17.755134269977">
        <ele>20.4</ele>
        <time>2017-09-05T17:45:11Z</time>
      </trkpt>
      <trkpt lat="59.204836176844" lon="17.755255639889">
        <ele>20.2</ele>
        <time>2017-09-05T17:45:12Z</time>
      </trkpt>
      <trkpt lat="59.204846318943" lon="17.755370807195">
        <ele>19.8</ele>
        <time>2017-09-05T17:45:13Z</time>
      </trkpt>
      <trkpt lat="59.2048633342" lon="17.755470467986">
        <ele>19.4</ele>
        <time>2017-09-05T17:45:14Z</time>
      </trkpt>
      <trkpt lat="59.204887054977" lon="17.755548168199">
        <ele>19.2</ele>
        <time>2017-09-05T17:45:15Z</time>
      </trkpt>
      <trkpt lat="59.204915888713" lon="17.755606338585">
        <ele>18.8</ele>
        <time>2017-09-05T17:45:16Z</time>
      </trkpt>
      <trkpt lat="59.204954193996" lon="17.755645649696">
        <ele>18.6</ele>
        <time>2017-09-05T17:45:17Z</time>
      </trkpt>
      <trkpt lat="59.205050837303" lon="17.755659144555">
        <ele>18</ele>
        <time>2017-09-05T17:45:19Z</time>
      </trkpt>
      <trkpt lat="59.205102972721" lon="17.755638860357">
        <ele>17.2</ele>
        <time>2017-09-05T17:45:20Z</time>
      </trkpt>
      <trkpt lat="59.205156365424" lon="17.75560340492">
        <ele>17</ele>
        <time>2017-09-05T17:45:21Z</time>
      </trkpt>
      <trkpt lat="59.205212356516" lon="17.755563507076">
        <ele>16.8</ele>
        <time>2017-09-05T17:45:22Z</time>
      </trkpt>
      <trkpt lat="59.205270275445" lon="17.75552880601">
        <ele>16.6</ele>
        <time>2017-09-05T17:45:23Z</time>
      </trkpt>
      <trkpt lat="59.205392818823" lon="17.755456302575">
        <ele>16.4</ele>
        <time>2017-09-05T17:45:25Z</time>
      </trkpt>
      <trkpt lat="59.205521229531" lon="17.755381452208">
        <ele>15.8</ele>
        <time>2017-09-05T17:45:27Z</time>
      </trkpt>
      <trkpt lat="59.205657686863" lon="17.755298722855">
        <ele>15.6</ele>
        <time>2017-09-05T17:45:29Z</time>
      </trkpt>
      <trkpt lat="59.205796994041" lon="17.755215406769">
        <ele>15.4</ele>
        <time>2017-09-05T17:45:31Z</time>
      </trkpt>
      <trkpt lat="59.205937139409" lon="17.755136197814">
        <ele>15</ele>
        <time>2017-09-05T17:45:33Z</time>
      </trkpt>
      <trkpt lat="59.206008720835" lon="17.755094120676">
        <ele>14.8</ele>
        <time>2017-09-05T17:45:34Z</time>
      </trkpt>
      <trkpt lat="59.206081894822" lon="17.7550518759">
        <ele>14.2</ele>
        <time>2017-09-05T17:45:35Z</time>
      </trkpt>
      <trkpt lat="59.206228578072" lon="17.754966631977">
        <ele>14</ele>
        <time>2017-09-05T17:45:37Z</time>
      </trkpt>
      <trkpt lat="59.206379116996" lon="17.754879460217">
        <ele>13.2</ele>
        <time>2017-09-05T17:45:39Z</time>
      </trkpt>
      <trkpt lat="59.206536529078" lon="17.754793461923">
        <ele>12.6</ele>
        <time>2017-09-05T17:45:41Z</time>
      </trkpt>
      <trkpt lat="59.206699557033" lon="17.754704529964">
        <ele>12</ele>
        <time>2017-09-05T17:45:43Z</time>
      </trkpt>
      <trkpt lat="59.206870547793" lon="17.754604785354">
        <ele>10.8</ele>
        <time>2017-09-05T17:45:45Z</time>
      </trkpt>
      <trkpt lat="59.206958557743" lon="17.754551895565">
        <ele>10.6</ele>
        <time>2017-09-05T17:45:46Z</time>
      </trkpt>
      <trkpt lat="59.207048244073" lon="17.754500095423">
        <ele>9.4</ele>
        <time>2017-09-05T17:45:47Z</time>
      </trkpt>
      <trkpt lat="59.207138349498" lon="17.754448882014">
        <ele>9.2</ele>
        <time>2017-09-05T17:45:48Z</time>
      </trkpt>
      <trkpt lat="59.207229041656" lon="17.754398674433">
        <ele>8.8</ele>
        <time>2017-09-05T17:45:49Z</time>
      </trkpt>
      <trkpt lat="59.207321158737" lon="17.754344862635">
        <ele>8.2</ele>
        <time>2017-09-05T17:45:50Z</time>
      </trkpt>
      <trkpt lat="59.207414533103" lon="17.754288703905">
        <ele>7.6</ele>
        <time>2017-09-05T17:45:51Z</time>
      </trkpt>
      <trkpt lat="59.207510086763" lon="17.754234053917">
        <ele>7</ele>
        <time>2017-09-05T17:45:52Z</time>
      </trkpt>
      <trkpt lat="59.207607232984" lon="17.75418183468">
        <ele>6.4</ele>
        <time>2017-09-05T17:45:53Z</time>
      </trkpt>
      <trkpt lat="59.207704546843" lon="17.754128441977">
        <ele>5.8</ele>
        <time>2017-09-05T17:45:54Z</time>
      </trkpt>
      <trkpt lat="59.207802698892" lon="17.754074630179">
        <ele>5.2</ele>
        <time>2017-09-05T17:45:55Z</time>
      </trkpt>
      <trkpt lat="59.207900767122" lon="17.754019058182">
        <ele>4.4</ele>
        <time>2017-09-05T17:45:56Z</time>
      </trkpt>
      <trkpt lat="59.208000092637" lon="17.753963737642">
        <ele>3.2</ele>
        <time>2017-09-05T17:45:57Z</time>
      </trkpt>
      <trkpt lat="59.208099669609" lon="17.753909925844">
        <ele>2.6</ele>
        <time>2017-09-05T17:45:58Z</time>
      </trkpt>
      <trkpt lat="59.208199162762" lon="17.753857790426">
        <ele>2.2</ele>
        <time>2017-09-05T17:45:59Z</time>
      </trkpt>
      <trkpt lat="59.208394544851" lon="17.753761985309">
        <ele>1.2</ele>
        <time>2017-09-05T17:46:01Z</time>
      </trkpt>
      <trkpt lat="59.208586741818" lon="17.753684033639">
        <ele>0</ele>
        <time>2017-09-05T17:46:03Z</time>
      </trkpt>
      <trkpt lat="59.20877432874" lon="17.753636424447">
        <ele>0</ele>
        <time>2017-09-05T17:46:05Z</time>
      </trkpt>
      <trkpt lat="59.208865104717" lon="17.753619744466">
        <ele>0</ele>
        <time>2017-09-05T17:46:06Z</time>
      </trkpt>
      <trkpt lat="59.208950264821" lon="17.753610105281">
        <ele>0</ele>
        <time>2017-09-05T17:46:07Z</time>
      </trkpt>
      <trkpt lat="59.209090410189" lon="17.753603315942">
        <ele>0</ele>
        <time>2017-09-05T17:46:09Z</time>
      </trkpt>
      <trkpt lat="59.20917833632" lon="17.753678333947">
        <ele>0</ele>
        <time>2017-09-05T17:46:11Z</time>
      </trkpt>
      <trkpt lat="59.209209684626" lon="17.753812276709">
        <ele>0</ele>
        <time>2017-09-05T17:46:13Z</time>
      </trkpt>
      <trkpt lat="59.209216390146" lon="17.753881092108">
        <ele>0</ele>
        <time>2017-09-05T17:46:14Z</time>
      </trkpt>
      <trkpt lat="59.209222928028" lon="17.753945884195">
        <ele>0</ele>
        <time>2017-09-05T17:46:15Z</time>
      </trkpt>
      <trkpt lat="59.209232315756" lon="17.754064823356">
        <ele>0</ele>
        <time>2017-09-05T17:46:17Z</time>
      </trkpt>
      <trkpt lat="59.209235836154" lon="17.754170183839">
        <ele>0</ele>
        <time>2017-09-05T17:46:19Z</time>
      </trkpt>
      <trkpt lat="59.209236422887" lon="17.754232461356">
        <ele>0</ele>
        <time>2017-09-05T17:46:21Z</time>
      </trkpt>
      <trkpt lat="59.209244720968" lon="17.754305970619">
        <ele>1.2</ele>
        <time>2017-09-05T17:47:28Z</time>
      </trkpt>
      <trkpt lat="59.209247654633" lon="17.75432935612">
        <ele>1.2</ele>
        <time>2017-09-05T17:47:29Z</time>
      </trkpt>
      <trkpt lat="59.209249331013" lon="17.754381994452">
        <ele>1.2</ele>
        <time>2017-09-05T17:47:31Z</time>
      </trkpt>
      <trkpt lat="59.209250253022" lon="17.75449783231">
        <ele>1.2</ele>
        <time>2017-09-05T17:47:33Z</time>
      </trkpt>
      <trkpt lat="59.209254192515" lon="17.754680390092">
        <ele>1.2</ele>
        <time>2017-09-05T17:47:35Z</time>
      </trkpt>
      <trkpt lat="59.209258215827" lon="17.754875604543">
        <ele>1.2</ele>
        <time>2017-09-05T17:47:37Z</time>
      </trkpt>
      <trkpt lat="59.209259221655" lon="17.755094958866">
        <ele>1.2</ele>
        <time>2017-09-05T17:47:39Z</time>
      </trkpt>
      <trkpt lat="59.209255198343" lon="17.755344990943">
        <ele>1.2</ele>
        <time>2017-09-05T17:47:41Z</time>
      </trkpt>
      <trkpt lat="59.209243463683" lon="17.755635423778">
        <ele>1</ele>
        <time>2017-09-05T17:47:43Z</time>
      </trkpt>
      <trkpt lat="59.209221000191" lon="17.755949745028">
        <ele>0.8</ele>
        <time>2017-09-05T17:47:45Z</time>
      </trkpt>
      <trkpt lat="59.209188729876" lon="17.756273537825">
        <ele>0.2</ele>
        <time>2017-09-05T17:47:47Z</time>
      </trkpt>
      <trkpt lat="59.209151011326" lon="17.756598252631">
        <ele>0.2</ele>
        <time>2017-09-05T17:47:49Z</time>
      </trkpt>
      <trkpt lat="59.209110610568" lon="17.756894636615">
        <ele>0</ele>
        <time>2017-09-05T17:47:51Z</time>
      </trkpt>
      <trkpt lat="59.209066773231" lon="17.757179872672">
        <ele>0</ele>
        <time>2017-09-05T17:47:53Z</time>
      </trkpt>
      <trkpt lat="59.209024612274" lon="17.757452703517">
        <ele>0</ele>
        <time>2017-09-05T17:47:55Z</time>
      </trkpt>
      <trkpt lat="59.208984965887" lon="17.757714637892">
        <ele>0.2</ele>
        <time>2017-09-05T17:47:57Z</time>
      </trkpt>
      <trkpt lat="59.208946409147" lon="17.757964837607">
        <ele>0.6</ele>
        <time>2017-09-05T17:47:59Z</time>
      </trkpt>
      <trkpt lat="59.208930651175" lon="17.758089225003">
        <ele>1</ele>
        <time>2017-09-05T17:48:00Z</time>
      </trkpt>
      <trkpt lat="59.208915899031" lon="17.75821269039">
        <ele>1.6</ele>
        <time>2017-09-05T17:48:01Z</time>
      </trkpt>
      <trkpt lat="59.208901901258" lon="17.758336239596">
        <ele>2</ele>
        <time>2017-09-05T17:48:02Z</time>
      </trkpt>
      <trkpt lat="59.208888238761" lon="17.758457777146">
        <ele>3.6</ele>
        <time>2017-09-05T17:48:03Z</time>
      </trkpt>
      <trkpt lat="59.208864350346" lon="17.758695404011">
        <ele>4.6</ele>
        <time>2017-09-05T17:48:05Z</time>
      </trkpt>
      <trkpt lat="59.208850352573" lon="17.758928588469">
        <ele>5.6</ele>
        <time>2017-09-05T17:48:07Z</time>
      </trkpt>
      <trkpt lat="59.20884389851" lon="17.759042833766">
        <ele>5.8</ele>
        <time>2017-09-05T17:48:08Z</time>
      </trkpt>
      <trkpt lat="59.208838534094" lon="17.759155235045">
        <ele>6.4</ele>
        <time>2017-09-05T17:48:09Z</time>
      </trkpt>
      <trkpt lat="59.208834426963" lon="17.759265624668">
        <ele>7</ele>
        <time>2017-09-05T17:48:10Z</time>
      </trkpt>
      <trkpt lat="59.208831493298" lon="17.759374254092">
        <ele>7.4</ele>
        <time>2017-09-05T17:48:11Z</time>
      </trkpt>
      <trkpt lat="59.208829397823" lon="17.759592854044">
        <ele>8</ele>
        <time>2017-09-05T17:48:13Z</time>
      </trkpt>
      <trkpt lat="59.208834426963" lon="17.759814136204">
        <ele>8.6</ele>
        <time>2017-09-05T17:48:15Z</time>
      </trkpt>
      <trkpt lat="59.208847586546" lon="17.760036508011">
        <ele>9</ele>
        <time>2017-09-05T17:48:17Z</time>
      </trkpt>
      <trkpt lat="59.208863260699" lon="17.760258041628">
        <ele>9.6</ele>
        <time>2017-09-05T17:48:19Z</time>
      </trkpt>
      <trkpt lat="59.208876168825" lon="17.760484688204">
        <ele>10.4</ele>
        <time>2017-09-05T17:48:21Z</time>
      </trkpt>
      <trkpt lat="59.208889076951" lon="17.760711753875">
        <ele>11</ele>
        <time>2017-09-05T17:48:23Z</time>
      </trkpt>
      <trkpt lat="59.208903242362" lon="17.760938316632">
        <ele>11.6</ele>
        <time>2017-09-05T17:48:25Z</time>
      </trkpt>
      <trkpt lat="59.208906008389" lon="17.761051975196">
        <ele>11.6</ele>
        <time>2017-09-05T17:48:26Z</time>
      </trkpt>
      <trkpt lat="59.208904164371" lon="17.761165549941">
        <ele>11.8</ele>
        <time>2017-09-05T17:48:27Z</time>
      </trkpt>
      <trkpt lat="59.208901063068" lon="17.761391190689">
        <ele>11.8</ele>
        <time>2017-09-05T17:48:29Z</time>
      </trkpt>
      <trkpt lat="59.208940541817" lon="17.761596379601">
        <ele>12.4</ele>
        <time>2017-09-05T17:48:31Z</time>
      </trkpt>
      <trkpt lat="59.209024276998" lon="17.761744906869">
        <ele>12.8</ele>
        <time>2017-09-05T17:48:33Z</time>
      </trkpt>
      <trkpt lat="59.20906769524" lon="17.761807268205">
        <ele>12.8</ele>
        <time>2017-09-05T17:48:34Z</time>
      </trkpt>
      <trkpt lat="59.209111029663" lon="17.761864432763">
        <ele>12.8</ele>
        <time>2017-09-05T17:48:35Z</time>
      </trkpt>
      <trkpt lat="59.209196525043" lon="17.761971637264">
        <ele>13.2</ele>
        <time>2017-09-05T17:48:37Z</time>
      </trkpt>
      <trkpt lat="59.209278835301" lon="17.762072220064">
        <ele>13.4</ele>
        <time>2017-09-05T17:48:39Z</time>
      </trkpt>
      <trkpt lat="59.209320996258" lon="17.762117063229">
        <ele>13.6</ele>
        <time>2017-09-05T17:48:40Z</time>
      </trkpt>
      <trkpt lat="59.209366174699" lon="17.762161068204">
        <ele>13.8</ele>
        <time>2017-09-05T17:48:41Z</time>
      </trkpt>
      <trkpt lat="59.20945326264" lon="17.762247904688">
        <ele>14.4</ele>
        <time>2017-09-05T17:48:43Z</time>
      </trkpt>
      <trkpt lat="59.209498943995" lon="17.762288221627">
        <ele>14.8</ele>
        <time>2017-09-05T17:48:44Z</time>
      </trkpt>
      <trkpt lat="59.209546804644" lon="17.762322671236">
        <ele>15.2</ele>
        <time>2017-09-05T17:48:45Z</time>
      </trkpt>
      <trkpt lat="59.209596174035" lon="17.762355276827">
        <ele>15.6</ele>
        <time>2017-09-05T17:48:46Z</time>
      </trkpt>
      <trkpt lat="59.209648309453" lon="17.762384278201">
        <ele>16</ele>
        <time>2017-09-05T17:48:47Z</time>
      </trkpt>
      <trkpt lat="59.209745120398" lon="17.762438173818">
        <ele>17</ele>
        <time>2017-09-05T17:48:49Z</time>
      </trkpt>
      <trkpt lat="59.209846289931" lon="17.76249751767">
        <ele>17.8</ele>
        <time>2017-09-05T17:48:51Z</time>
      </trkpt>
      <trkpt lat="59.20993354551" lon="17.762559627549">
        <ele>18.4</ele>
        <time>2017-09-05T17:48:53Z</time>
      </trkpt>
      <trkpt lat="59.209970174413" lon="17.762594077158">
        <ele>18.8</ele>
        <time>2017-09-05T17:48:54Z</time>
      </trkpt>
      <trkpt lat="59.210005378393" lon="17.762630035509">
        <ele>19.2</ele>
        <time>2017-09-05T17:48:55Z</time>
      </trkpt>
      <trkpt lat="59.210068242643" lon="17.762708238636">
        <ele>20</ele>
        <time>2017-09-05T17:48:57Z</time>
      </trkpt>
      <trkpt lat="59.210129011418" lon="17.762803205563">
        <ele>21.4</ele>
        <time>2017-09-05T17:48:59Z</time>
      </trkpt>
      <trkpt lat="59.210160443543" lon="17.762859029017">
        <ele>21.8</ele>
        <time>2017-09-05T17:49:00Z</time>
      </trkpt>
      <trkpt lat="59.210188439089" lon="17.762918205231">
        <ele>22.4</ele>
        <time>2017-09-05T17:49:01Z</time>
      </trkpt>
      <trkpt lat="59.210249040226" lon="17.763048795233">
        <ele>23.6</ele>
        <time>2017-09-05T17:49:03Z</time>
      </trkpt>
      <trkpt lat="59.210301259463" lon="17.763193047732">
        <ele>24.4</ele>
        <time>2017-09-05T17:49:05Z</time>
      </trkpt>
      <trkpt lat="59.210318609996" lon="17.763270999402">
        <ele>24.6</ele>
        <time>2017-09-05T17:49:06Z</time>
      </trkpt>
      <trkpt lat="59.210330596113" lon="17.763354231669">
        <ele>24.8</ele>
        <time>2017-09-05T17:49:07Z</time>
      </trkpt>
      <trkpt lat="59.210353143424" lon="17.763525222429">
        <ele>25.4</ele>
        <time>2017-09-05T17:49:09Z</time>
      </trkpt>
      <trkpt lat="59.210360519496" lon="17.763615746949">
        <ele>25.6</ele>
        <time>2017-09-05T17:49:10Z</time>
      </trkpt>
      <trkpt lat="59.210366303007" lon="17.76370618765">
        <ele>25.8</ele>
        <time>2017-09-05T17:49:11Z</time>
      </trkpt>
      <trkpt lat="59.21037191888" lon="17.763886901414">
        <ele>26.2</ele>
        <time>2017-09-05T17:49:13Z</time>
      </trkpt>
      <trkpt lat="59.210370074862" lon="17.763976587744">
        <ele>26.6</ele>
        <time>2017-09-05T17:49:14Z</time>
      </trkpt>
      <trkpt lat="59.210367644111" lon="17.764067698997">
        <ele>26.6</ele>
        <time>2017-09-05T17:49:15Z</time>
      </trkpt>
      <trkpt lat="59.210360603315" lon="17.764258471041">
        <ele>27</ele>
        <time>2017-09-05T17:49:17Z</time>
      </trkpt>
      <trkpt lat="59.210348281922" lon="17.764460223374">
        <ele>27.4</ele>
        <time>2017-09-05T17:49:19Z</time>
      </trkpt>
      <trkpt lat="59.210340486755" lon="17.764569188074">
        <ele>27.6</ele>
        <time>2017-09-05T17:49:20Z</time>
      </trkpt>
      <trkpt lat="59.210333697416" lon="17.764673710367">
        <ele>27.8</ele>
        <time>2017-09-05T17:49:21Z</time>
      </trkpt>
      <trkpt lat="59.210318861453" lon="17.764889209016">
        <ele>28</ele>
        <time>2017-09-05T17:49:23Z</time>
      </trkpt>
      <trkpt lat="59.210297487608" lon="17.765103701837">
        <ele>28.2</ele>
        <time>2017-09-05T17:49:25Z</time>
      </trkpt>
      <trkpt lat="59.210271252261" lon="17.76531467426">
        <ele>28.4</ele>
        <time>2017-09-05T17:49:27Z</time>
      </trkpt>
      <trkpt lat="59.210237724661" lon="17.765509050521">
        <ele>28.4</ele>
        <time>2017-09-05T17:49:29Z</time>
      </trkpt>
      <trkpt lat="59.210218027196" lon="17.765593204797">
        <ele>28.4</ele>
        <time>2017-09-05T17:49:30Z</time>
      </trkpt>
      <trkpt lat="59.210199922292" lon="17.765665456775">
        <ele>28.4</ele>
        <time>2017-09-05T17:49:31Z</time>
      </trkpt>
      <trkpt lat="59.210176201515" lon="17.765768637964">
        <ele>28.6</ele>
        <time>2017-09-05T17:49:33Z</time>
      </trkpt>
      <trkpt lat="59.210165640321" lon="17.765821863029">
        <ele>29.2</ele>
        <time>2017-09-05T17:49:35Z</time>
      </trkpt>
      <trkpt lat="59.210165221226" lon="17.765831418395">
        <ele>29.6</ele>
        <time>2017-09-05T17:49:36Z</time>
      </trkpt>
      <trkpt lat="59.210156839326" lon="17.765892773903">
        <ele>31.2</ele>
        <time>2017-09-05T17:51:47Z</time>
      </trkpt>
      <trkpt lat="59.210150385263" lon="17.765946501882">
        <ele>31.2</ele>
        <time>2017-09-05T17:51:49Z</time>
      </trkpt>
      <trkpt lat="59.210126748305" lon="17.766027219579">
        <ele>31.2</ele>
        <time>2017-09-05T17:51:51Z</time>
      </trkpt>
      <trkpt lat="59.210088275384" lon="17.766147918939">
        <ele>31.2</ele>
        <time>2017-09-05T17:51:53Z</time>
      </trkpt>
      <trkpt lat="59.210046868798" lon="17.766265768453">
        <ele>31.2</ele>
        <time>2017-09-05T17:51:55Z</time>
      </trkpt>
      <trkpt lat="59.210002780004" lon="17.766398956844">
        <ele>31</ele>
        <time>2017-09-05T17:51:57Z</time>
      </trkpt>
      <trkpt lat="59.209947459464" lon="17.766552094157">
        <ele>31</ele>
        <time>2017-09-05T17:51:59Z</time>
      </trkpt>
      <trkpt lat="59.209912758398" lon="17.766627363619">
        <ele>31</ele>
        <time>2017-09-05T17:52:00Z</time>
      </trkpt>
      <trkpt lat="59.209873028192" lon="17.766701459615">
        <ele>30.8</ele>
        <time>2017-09-05T17:52:01Z</time>
      </trkpt>
      <trkpt lat="59.20978099493" lon="17.766859206973">
        <ele>30.8</ele>
        <time>2017-09-05T17:52:03Z</time>
      </trkpt>
      <trkpt lat="59.209676472637" lon="17.767034891597">
        <ele>30.6</ele>
        <time>2017-09-05T17:52:05Z</time>
      </trkpt>
      <trkpt lat="59.209555438001" lon="17.76720982185">
        <ele>30.4</ele>
        <time>2017-09-05T17:52:07Z</time>
      </trkpt>
      <trkpt lat="59.209417304289" lon="17.767365641371">
        <ele>30</ele>
        <time>2017-09-05T17:52:09Z</time>
      </trkpt>
      <trkpt lat="59.209341196637" lon="17.767439905005">
        <ele>29.4</ele>
        <time>2017-09-05T17:52:10Z</time>
      </trkpt>
      <trkpt lat="59.209263747881" lon="17.767505619101">
        <ele>29</ele>
        <time>2017-09-05T17:52:11Z</time>
      </trkpt>
      <trkpt lat="59.209101306659" lon="17.767601843313">
        <ele>28.2</ele>
        <time>2017-09-05T17:52:13Z</time>
      </trkpt>
      <trkpt lat="59.208943559301" lon="17.767683063924">
        <ele>27.8</ele>
        <time>2017-09-05T17:52:15Z</time>
      </trkpt>
      <trkpt lat="59.20879109254" lon="17.767742659233">
        <ele>27.2</ele>
        <time>2017-09-05T17:52:17Z</time>
      </trkpt>
      <trkpt lat="59.208651533905" lon="17.767801919266">
        <ele>27</ele>
        <time>2017-09-05T17:52:19Z</time>
      </trkpt>
      <trkpt lat="59.208586155085" lon="17.767832345563">
        <ele>27</ele>
        <time>2017-09-05T17:52:20Z</time>
      </trkpt>
      <trkpt lat="59.208523123197" lon="17.767863358593">
        <ele>27</ele>
        <time>2017-09-05T17:52:21Z</time>
      </trkpt>
      <trkpt lat="59.208405944235" lon="17.767933515096">
        <ele>27</ele>
        <time>2017-09-05T17:52:23Z</time>
      </trkpt>
      <trkpt lat="59.208298739734" lon="17.768011550585">
        <ele>27</ele>
        <time>2017-09-05T17:52:25Z</time>
      </trkpt>
      <trkpt lat="59.208204443359" lon="17.768091178635">
        <ele>27.6</ele>
        <time>2017-09-05T17:52:27Z</time>
      </trkpt>
      <trkpt lat="59.208162869135" lon="17.768133758687">
        <ele>28</ele>
        <time>2017-09-05T17:52:28Z</time>
      </trkpt>
      <trkpt lat="59.208122636015" lon="17.768176925472">
        <ele>28.4</ele>
        <time>2017-09-05T17:52:29Z</time>
      </trkpt>
      <trkpt lat="59.208041331585" lon="17.768267533811">
        <ele>29</ele>
        <time>2017-09-05T17:52:31Z</time>
      </trkpt>
      <trkpt lat="59.208000176456" lon="17.76831707084">
        <ele>29.2</ele>
        <time>2017-09-05T17:52:32Z</time>
      </trkpt>
      <trkpt lat="59.207959021327" lon="17.768369960629">
        <ele>29.4</ele>
        <time>2017-09-05T17:52:33Z</time>
      </trkpt>
      <trkpt lat="59.207876208155" lon="17.7684880616">
        <ele>30</ele>
        <time>2017-09-05T17:52:35Z</time>
      </trkpt>
      <trkpt lat="59.207836058854" lon="17.768549668565">
        <ele>30.4</ele>
        <time>2017-09-05T17:52:36Z</time>
      </trkpt>
      <trkpt lat="59.207796412467" lon="17.76861211372">
        <ele>30.8</ele>
        <time>2017-09-05T17:52:37Z</time>
      </trkpt>
      <trkpt lat="59.20771820934" lon="17.768744883016">
        <ele>31.4</ele>
        <time>2017-09-05T17:52:39Z</time>
      </trkpt>
      <trkpt lat="59.207645119172" lon="17.768890644257">
        <ele>32.4</ele>
        <time>2017-09-05T17:52:41Z</time>
      </trkpt>
      <trkpt lat="59.207616033979" lon="17.768962896235">
        <ele>32.8</ele>
        <time>2017-09-05T17:52:42Z</time>
      </trkpt>
      <trkpt lat="59.207588541347" lon="17.769030286711">
        <ele>33</ele>
        <time>2017-09-05T17:52:43Z</time>
      </trkpt>
      <trkpt lat="59.207537495576" lon="17.76915442265">
        <ele>33.4</ele>
        <time>2017-09-05T17:52:45Z</time>
      </trkpt>
      <trkpt lat="59.207492484773" lon="17.769281659892">
        <ele>33.6</ele>
        <time>2017-09-05T17:52:47Z</time>
      </trkpt>
      <trkpt lat="59.207448815074" lon="17.769410824971">
        <ele>34.2</ele>
        <time>2017-09-05T17:52:49Z</time>
      </trkpt>
      <trkpt lat="59.207406821755" lon="17.769547114665">
        <ele>34.8</ele>
        <time>2017-09-05T17:52:51Z</time>
      </trkpt>
      <trkpt lat="59.207363068237" lon="17.769689104051">
        <ele>35.4</ele>
        <time>2017-09-05T17:52:53Z</time>
      </trkpt>
      <trkpt lat="59.207316297235" lon="17.769828243591">
        <ele>35.8</ele>
        <time>2017-09-05T17:52:55Z</time>
      </trkpt>
      <trkpt lat="59.207294252838" lon="17.769901166121">
        <ele>35.8</ele>
        <time>2017-09-05T17:52:56Z</time>
      </trkpt>
      <trkpt lat="59.20727229226" lon="17.769975513574">
        <ele>35.8</ele>
        <time>2017-09-05T17:52:57Z</time>
      </trkpt>
      <trkpt lat="59.207228035828" lon="17.770126974507">
        <ele>36</ele>
        <time>2017-09-05T17:52:59Z</time>
      </trkpt>
      <trkpt lat="59.207182019197" lon="17.770283548399">
        <ele>36.2</ele>
        <time>2017-09-05T17:53:01Z</time>
      </trkpt>
      <trkpt lat="59.207135834928" lon="17.770439284101">
        <ele>36.2</ele>
        <time>2017-09-05T17:53:03Z</time>
      </trkpt>
      <trkpt lat="59.20708872865" lon="17.770598372563">
        <ele>36.4</ele>
        <time>2017-09-05T17:53:05Z</time>
      </trkpt>
      <trkpt lat="59.207037515241" lon="17.770750168772">
        <ele>36.4</ele>
        <time>2017-09-05T17:53:07Z</time>
      </trkpt>
      <trkpt lat="59.206989151678" lon="17.770897438755">
        <ele>36.6</ele>
        <time>2017-09-05T17:53:09Z</time>
      </trkpt>
      <trkpt lat="59.206946823083" lon="17.771026352377">
        <ele>36.6</ele>
        <time>2017-09-05T17:53:11Z</time>
      </trkpt>
      <trkpt lat="59.206929137274" lon="17.771086282962">
        <ele>36.8</ele>
        <time>2017-09-05T17:53:12Z</time>
      </trkpt>
      <trkpt lat="59.206912205836" lon="17.771145207719">
        <ele>36.8</ele>
        <time>2017-09-05T17:53:13Z</time>
      </trkpt>
      <trkpt lat="59.206876247485" lon="17.77125827955">
        <ele>37</ele>
        <time>2017-09-05T17:53:15Z</time>
      </trkpt>
      <trkpt lat="59.206839367125" lon="17.771380403833">
        <ele>37</ele>
        <time>2017-09-05T17:53:17Z</time>
      </trkpt>
      <trkpt lat="59.206798379634" lon="17.771517783174">
        <ele>37.2</ele>
        <time>2017-09-05T17:53:19Z</time>
      </trkpt>
      <trkpt lat="59.206752446822" lon="17.771662203311">
        <ele>37.2</ele>
        <time>2017-09-05T17:53:21Z</time>
      </trkpt>
      <trkpt lat="59.206705508182" lon="17.771796229892">
        <ele>37.4</ele>
        <time>2017-09-05T17:53:23Z</time>
      </trkpt>
      <trkpt lat="59.206659407732" lon="17.771929083007">
        <ele>37.4</ele>
        <time>2017-09-05T17:53:25Z</time>
      </trkpt>
      <trkpt lat="59.206636860421" lon="17.771994378008">
        <ele>37.4</ele>
        <time>2017-09-05T17:53:26Z</time>
      </trkpt>
      <trkpt lat="59.206616073309" lon="17.772060678837">
        <ele>37.6</ele>
        <time>2017-09-05T17:53:27Z</time>
      </trkpt>
      <trkpt lat="59.206572990343" lon="17.77219034683">
        <ele>37.6</ele>
        <time>2017-09-05T17:53:29Z</time>
      </trkpt>
      <trkpt lat="59.206529991196" lon="17.772326301248">
        <ele>37.4</ele>
        <time>2017-09-05T17:53:31Z</time>
      </trkpt>
      <trkpt lat="59.206486237678" lon="17.772476085801">
        <ele>37.6</ele>
        <time>2017-09-05T17:53:33Z</time>
      </trkpt>
      <trkpt lat="59.206446842748" lon="17.77262201468">
        <ele>37.8</ele>
        <time>2017-09-05T17:53:35Z</time>
      </trkpt>
      <trkpt lat="59.206411052035" lon="17.772763165876">
        <ele>38</ele>
        <time>2017-09-05T17:53:37Z</time>
      </trkpt>
      <trkpt lat="59.206377356797" lon="17.772905490538">
        <ele>38.2</ele>
        <time>2017-09-05T17:53:39Z</time>
      </trkpt>
      <trkpt lat="59.20634944507" lon="17.773048821028">
        <ele>38.2</ele>
        <time>2017-09-05T17:53:41Z</time>
      </trkpt>
      <trkpt lat="59.206324550827" lon="17.773186703283">
        <ele>38.4</ele>
        <time>2017-09-05T17:53:43Z</time>
      </trkpt>
      <trkpt lat="59.206306026828" lon="17.773322573882">
        <ele>38.4</ele>
        <time>2017-09-05T17:53:45Z</time>
      </trkpt>
      <trkpt lat="59.206286077906" lon="17.773458276843">
        <ele>38.4</ele>
        <time>2017-09-05T17:53:47Z</time>
      </trkpt>
      <trkpt lat="59.206266128984" lon="17.77359096232">
        <ele>38.4</ele>
        <time>2017-09-05T17:53:49Z</time>
      </trkpt>
      <trkpt lat="59.20625556779" lon="17.773722055236">
        <ele>38.4</ele>
        <time>2017-09-05T17:53:51Z</time>
      </trkpt>
      <trkpt lat="59.206249532822" lon="17.773857590559">
        <ele>38.4</ele>
        <time>2017-09-05T17:53:53Z</time>
      </trkpt>
      <trkpt lat="59.20625053865" lon="17.773985498353">
        <ele>38.4</ele>
        <time>2017-09-05T17:53:55Z</time>
      </trkpt>
      <trkpt lat="59.206252885582" lon="17.774110723939">
        <ele>38.2</ele>
        <time>2017-09-05T17:53:57Z</time>
      </trkpt>
      <trkpt lat="59.206254142867" lon="17.774235027516">
        <ele>38.2</ele>
        <time>2017-09-05T17:53:59Z</time>
      </trkpt>
      <trkpt lat="59.206260932206" lon="17.774344746587">
        <ele>38.4</ele>
        <time>2017-09-05T17:54:01Z</time>
      </trkpt>
      <trkpt lat="59.206276438721" lon="17.774458824246">
        <ele>38.2</ele>
        <time>2017-09-05T17:54:03Z</time>
      </trkpt>
      <trkpt lat="59.206289849761" lon="17.774574075371">
        <ele>38.2</ele>
        <time>2017-09-05T17:54:05Z</time>
      </trkpt>
      <trkpt lat="59.206305021" lon="17.774687901573">
        <ele>38</ele>
        <time>2017-09-05T17:54:07Z</time>
      </trkpt>
      <trkpt lat="59.206329496148" lon="17.774797201549">
        <ele>38</ele>
        <time>2017-09-05T17:54:09Z</time>
      </trkpt>
      <trkpt lat="59.206350786174" lon="17.774926869542">
        <ele>37.8</ele>
        <time>2017-09-05T17:54:11Z</time>
      </trkpt>
      <trkpt lat="59.206375512779" lon="17.775058716829">
        <ele>37.8</ele>
        <time>2017-09-05T17:54:13Z</time>
      </trkpt>
      <trkpt lat="59.206408453646" lon="17.775187127537">
        <ele>37.6</ele>
        <time>2017-09-05T17:54:15Z</time>
      </trkpt>
      <trkpt lat="59.206441143056" lon="17.775314700055">
        <ele>37.4</ele>
        <time>2017-09-05T17:54:17Z</time>
      </trkpt>
      <trkpt lat="59.206479867434" lon="17.775442943125">
        <ele>37.6</ele>
        <time>2017-09-05T17:54:19Z</time>
      </trkpt>
      <trkpt lat="59.206520100554" lon="17.775577304982">
        <ele>37</ele>
        <time>2017-09-05T17:54:21Z</time>
      </trkpt>
      <trkpt lat="59.206573325619" lon="17.775710409554">
        <ele>36.8</ele>
        <time>2017-09-05T17:54:23Z</time>
      </trkpt>
      <trkpt lat="59.206630573996" lon="17.775857847175">
        <ele>36.8</ele>
        <time>2017-09-05T17:54:25Z</time>
      </trkpt>
      <trkpt lat="59.206699389395" lon="17.776002183493">
        <ele>36.8</ele>
        <time>2017-09-05T17:54:27Z</time>
      </trkpt>
      <trkpt lat="59.206779185083" lon="17.776135036608">
        <ele>36.6</ele>
        <time>2017-09-05T17:54:29Z</time>
      </trkpt>
      <trkpt lat="59.206866189205" lon="17.776255484511">
        <ele>36.6</ele>
        <time>2017-09-05T17:54:31Z</time>
      </trkpt>
      <trkpt lat="59.206961072313" lon="17.776370567998">
        <ele>36.6</ele>
        <time>2017-09-05T17:54:33Z</time>
      </trkpt>
      <trkpt lat="59.207064169683" lon="17.776473665368">
        <ele>36.4</ele>
        <time>2017-09-05T17:54:35Z</time>
      </trkpt>
      <trkpt lat="59.207178666437" lon="17.776559915119">
        <ele>36.2</ele>
        <time>2017-09-05T17:54:37Z</time>
      </trkpt>
      <trkpt lat="59.207303640566" lon="17.776636693323">
        <ele>36.2</ele>
        <time>2017-09-05T17:54:39Z</time>
      </trkpt>
      <trkpt lat="59.207437164233" lon="17.776719841771">
        <ele>36</ele>
        <time>2017-09-05T17:54:41Z</time>
      </trkpt>
      <trkpt lat="59.207582590198" lon="17.776808186997">
        <ele>35.4</ele>
        <time>2017-09-05T17:54:43Z</time>
      </trkpt>
      <trkpt lat="59.2077383259" lon="17.776899382069">
        <ele>35</ele>
        <time>2017-09-05T17:54:45Z</time>
      </trkpt>
      <trkpt lat="59.20790261114" lon="17.77699233734">
        <ele>34.6</ele>
        <time>2017-09-05T17:54:47Z</time>
      </trkpt>
      <trkpt lat="59.208072847529" lon="17.777089483561">
        <ele>34.4</ele>
        <time>2017-09-05T17:54:49Z</time>
      </trkpt>
      <trkpt lat="59.208244676479" lon="17.777207416894">
        <ele>33.8</ele>
        <time>2017-09-05T17:54:51Z</time>
      </trkpt>
      <trkpt lat="59.208325142719" lon="17.777283524546">
        <ele>33</ele>
        <time>2017-09-05T17:54:52Z</time>
      </trkpt>
      <trkpt lat="59.208400998914" lon="17.77738293388">
        <ele>32.2</ele>
        <time>2017-09-05T17:54:53Z</time>
      </trkpt>
      <trkpt lat="59.208469479037" lon="17.777501873041">
        <ele>31.2</ele>
        <time>2017-09-05T17:54:54Z</time>
      </trkpt>
      <trkpt lat="59.208531002183" lon="17.777634726156">
        <ele>30.4</ele>
        <time>2017-09-05T17:54:55Z</time>
      </trkpt>
      <trkpt lat="59.208585400714" lon="17.777779816845">
        <ele>30</ele>
        <time>2017-09-05T17:54:56Z</time>
      </trkpt>
      <trkpt lat="59.208631920259" lon="17.777933037977">
        <ele>29.6</ele>
        <time>2017-09-05T17:54:57Z</time>
      </trkpt>
      <trkpt lat="59.208702328219" lon="17.778255657308">
        <ele>29.2</ele>
        <time>2017-09-05T17:54:59Z</time>
      </trkpt>
      <trkpt lat="59.208737951294" lon="17.778592358231">
        <ele>28.8</ele>
        <time>2017-09-05T17:55:01Z</time>
      </trkpt>
      <trkpt lat="59.208742980434" lon="17.778930735534">
        <ele>28.6</ele>
        <time>2017-09-05T17:55:03Z</time>
      </trkpt>
      <trkpt lat="59.208706351531" lon="17.779257461996">
        <ele>28</ele>
        <time>2017-09-05T17:55:05Z</time>
      </trkpt>
      <trkpt lat="59.208678020709" lon="17.779414371164">
        <ele>27.8</ele>
        <time>2017-09-05T17:55:06Z</time>
      </trkpt>
      <trkpt lat="59.208644325471" lon="17.779567508477">
        <ele>27.6</ele>
        <time>2017-09-05T17:55:07Z</time>
      </trkpt>
      <trkpt lat="59.208561679937" lon="17.779863305728">
        <ele>27.4</ele>
        <time>2017-09-05T17:55:09Z</time>
      </trkpt>
      <trkpt lat="59.208458498748" lon="17.780148374147">
        <ele>27.2</ele>
        <time>2017-09-05T17:55:11Z</time>
      </trkpt>
      <trkpt lat="59.208333776076" lon="17.780419612431">
        <ele>27.2</ele>
        <time>2017-09-05T17:55:13Z</time>
      </trkpt>
      <trkpt lat="59.208174352338" lon="17.780640391677">
        <ele>27</ele>
        <time>2017-09-05T17:55:15Z</time>
      </trkpt>
      <trkpt lat="59.207987016873" lon="17.780780872321">
        <ele>27</ele>
        <time>2017-09-05T17:55:17Z</time>
      </trkpt>
      <trkpt lat="59.207783336703" lon="17.780838707431">
        <ele>26.8</ele>
        <time>2017-09-05T17:55:19Z</time>
      </trkpt>
      <trkpt lat="59.207677054211" lon="17.780829822617">
        <ele>26.2</ele>
        <time>2017-09-05T17:55:20Z</time>
      </trkpt>
      <trkpt lat="59.207569933529" lon="17.780798055216">
        <ele>25.4</ele>
        <time>2017-09-05T17:55:21Z</time>
      </trkpt>
      <trkpt lat="59.207464321589" lon="17.780746506531">
        <ele>24.8</ele>
        <time>2017-09-05T17:55:22Z</time>
      </trkpt>
      <trkpt lat="59.207361391857" lon="17.780665034463">
        <ele>24</ele>
        <time>2017-09-05T17:55:23Z</time>
      </trkpt>
      <trkpt lat="59.20726307217" lon="17.780560093075">
        <ele>23.2</ele>
        <time>2017-09-05T17:55:24Z</time>
      </trkpt>
      <trkpt lat="59.207167350872" lon="17.780441405371">
        <ele>22.8</ele>
        <time>2017-09-05T17:55:25Z</time>
      </trkpt>
      <trkpt lat="59.206977333199" lon="17.780189613095">
        <ele>22</ele>
        <time>2017-09-05T17:55:27Z</time>
      </trkpt>
      <trkpt lat="59.206792260847" lon="17.779926337616">
        <ele>21</ele>
        <time>2017-09-05T17:55:29Z</time>
      </trkpt>
      <trkpt lat="59.206701065775" lon="17.779802117858">
        <ele>20.2</ele>
        <time>2017-09-05T17:55:30Z</time>
      </trkpt>
      <trkpt lat="59.206609535427" lon="17.779689381303">
        <ele>19.4</ele>
        <time>2017-09-05T17:55:31Z</time>
      </trkpt>
      <trkpt lat="59.206515071414" lon="17.779597264222">
        <ele>17.8</ele>
        <time>2017-09-05T17:55:32Z</time>
      </trkpt>
      <trkpt lat="59.206416835546" lon="17.779524844606">
        <ele>17.2</ele>
        <time>2017-09-05T17:55:33Z</time>
      </trkpt>
      <trkpt lat="59.206317090936" lon="17.7794683506">
        <ele>16.2</ele>
        <time>2017-09-05T17:55:34Z</time>
      </trkpt>
      <trkpt lat="59.206220028534" lon="17.77942560291">
        <ele>15.4</ele>
        <time>2017-09-05T17:55:35Z</time>
      </trkpt>
      <trkpt lat="59.20612397196" lon="17.779393584052">
        <ele>14.8</ele>
        <time>2017-09-05T17:55:36Z</time>
      </trkpt>
      <trkpt lat="59.20602925649" lon="17.779378915727">
        <ele>14.4</ele>
        <time>2017-09-05T17:55:37Z</time>
      </trkpt>
      <trkpt lat="59.205849297097" lon="17.77941135368">
        <ele>14.2</ele>
        <time>2017-09-05T17:55:39Z</time>
      </trkpt>
      <trkpt lat="59.205678976889" lon="17.779483018925">
        <ele>14.2</ele>
        <time>2017-09-05T17:55:41Z</time>
      </trkpt>
      <trkpt lat="59.205519469332" lon="17.779589469055">
        <ele>14.2</ele>
        <time>2017-09-05T17:55:43Z</time>
      </trkpt>
      <trkpt lat="59.205446462983" lon="17.779660044653">
        <ele>14.2</ele>
        <time>2017-09-05T17:55:44Z</time>
      </trkpt>
      <trkpt lat="59.205376893213" lon="17.779738415418">
        <ele>14.2</ele>
        <time>2017-09-05T17:55:45Z</time>
      </trkpt>
      <trkpt lat="59.205247644315" lon="17.779906807789">
        <ele>14.2</ele>
        <time>2017-09-05T17:55:47Z</time>
      </trkpt>
      <trkpt lat="59.205120490892" lon="17.780069584287">
        <ele>14.2</ele>
        <time>2017-09-05T17:55:49Z</time>
      </trkpt>
      <trkpt lat="59.204996271134" lon="17.780224733256">
        <ele>14.2</ele>
        <time>2017-09-05T17:55:51Z</time>
      </trkpt>
      <trkpt lat="59.204875236498" lon="17.780369823945">
        <ele>14.2</ele>
        <time>2017-09-05T17:55:53Z</time>
      </trkpt>
      <trkpt lat="59.204813378076" lon="17.780427742874">
        <ele>14.2</ele>
        <time>2017-09-05T17:55:54Z</time>
      </trkpt>
      <trkpt lat="59.204750513826" lon="17.780477615179">
        <ele>14.2</ele>
        <time>2017-09-05T17:55:55Z</time>
      </trkpt>
      <trkpt lat="59.204622941308" lon="17.78056135036">
        <ele>14.2</ele>
        <time>2017-09-05T17:55:57Z</time>
      </trkpt>
      <trkpt lat="59.204490591107" lon="17.780604265688">
        <ele>14.2</ele>
        <time>2017-09-05T17:55:59Z</time>
      </trkpt>
      <trkpt lat="59.204355223422" lon="17.780604433326">
        <ele>14.2</ele>
        <time>2017-09-05T17:56:01Z</time>
      </trkpt>
      <trkpt lat="59.204220945384" lon="17.780563278197">
        <ele>14</ele>
        <time>2017-09-05T17:56:03Z</time>
      </trkpt>
      <trkpt lat="59.204093624323" lon="17.78048004593">
        <ele>14</ele>
        <time>2017-09-05T17:56:05Z</time>
      </trkpt>
      <trkpt lat="59.204032604091" lon="17.780429167797">
        <ele>14</ele>
        <time>2017-09-05T17:56:06Z</time>
      </trkpt>
      <trkpt lat="59.203973344058" lon="17.780375439818">
        <ele>14</ele>
        <time>2017-09-05T17:56:07Z</time>
      </trkpt>
      <trkpt lat="59.203864463177" lon="17.780249459861">
        <ele>14</ele>
        <time>2017-09-05T17:56:09Z</time>
      </trkpt>
      <trkpt lat="59.203777123779" lon="17.78011710966">
        <ele>14</ele>
        <time>2017-09-05T17:56:11Z</time>
      </trkpt>
      <trkpt lat="59.203707218733" lon="17.780054664505">
        <ele>14.2</ele>
        <time>2017-09-05T17:56:13Z</time>
      </trkpt>
      <trkpt lat="59.203662710844" lon="17.780084923164">
        <ele>14.2</ele>
        <time>2017-09-05T17:56:15Z</time>
      </trkpt>
      <trkpt lat="59.203634296203" lon="17.780139405514">
        <ele>14.4</ele>
        <time>2017-09-05T17:56:17Z</time>
      </trkpt>
      <trkpt lat="59.20360185825" lon="17.780208220913">
        <ele>14.8</ele>
        <time>2017-09-05T17:56:19Z</time>
      </trkpt>
      <trkpt lat="59.203561960406" lon="17.78028642404">
        <ele>15</ele>
        <time>2017-09-05T17:56:21Z</time>
      </trkpt>
      <trkpt lat="59.203532875213" lon="17.780399160595">
        <ele>14.8</ele>
        <time>2017-09-05T17:56:23Z</time>
      </trkpt>
      <trkpt lat="59.203548046452" lon="17.780552633184">
        <ele>15</ele>
        <time>2017-09-05T17:56:25Z</time>
      </trkpt>
      <trkpt lat="59.2035892854" lon="17.780702669194">
        <ele>15</ele>
        <time>2017-09-05T17:56:27Z</time>
      </trkpt>
      <trkpt lat="59.203643013379" lon="17.780850693548">
        <ele>15</ele>
        <time>2017-09-05T17:56:29Z</time>
      </trkpt>
      <trkpt lat="59.20367813354" lon="17.780925543915">
        <ele>15</ele>
        <time>2017-09-05T17:56:30Z</time>
      </trkpt>
      <trkpt lat="59.203713756615" lon="17.781002070662">
        <ele>14.8</ele>
        <time>2017-09-05T17:56:31Z</time>
      </trkpt>
      <trkpt lat="59.203788271706" lon="17.781159566563">
        <ele>14.4</ele>
        <time>2017-09-05T17:56:33Z</time>
      </trkpt>
      <trkpt lat="59.203862032426" lon="17.781324270898">
        <ele>13.6</ele>
        <time>2017-09-05T17:56:35Z</time>
      </trkpt>
      <trkpt lat="59.203944845598" lon="17.781489142871">
        <ele>13</ele>
        <time>2017-09-05T17:56:37Z</time>
      </trkpt>
      <trkpt lat="59.204022126716" lon="17.781662061468">
        <ele>12.4</ele>
        <time>2017-09-05T17:56:39Z</time>
      </trkpt>
      <trkpt lat="59.204056743963" lon="17.781757950404">
        <ele>12.4</ele>
        <time>2017-09-05T17:56:40Z</time>
      </trkpt>
      <trkpt lat="59.204087421717" lon="17.781862472697">
        <ele>12.2</ele>
        <time>2017-09-05T17:56:41Z</time>
      </trkpt>
      <trkpt lat="59.204147939035" lon="17.782088783997">
        <ele>12.2</ele>
        <time>2017-09-05T17:56:43Z</time>
      </trkpt>
      <trkpt lat="59.204184651757" lon="17.782195737041">
        <ele>12.2</ele>
        <time>2017-09-05T17:56:44Z</time>
      </trkpt>
      <trkpt lat="59.204228992008" lon="17.782290871606">
        <ele>12</ele>
        <time>2017-09-05T17:56:45Z</time>
      </trkpt>
      <trkpt lat="59.20432521622" lon="17.782465801859">
        <ele>11.6</ele>
        <time>2017-09-05T17:56:47Z</time>
      </trkpt>
      <trkpt lat="59.204412890894" lon="17.78264425251">
        <ele>11.4</ele>
        <time>2017-09-05T17:56:49Z</time>
      </trkpt>
      <trkpt lat="59.204499643559" lon="17.782823289894">
        <ele>10.8</ele>
        <time>2017-09-05T17:56:51Z</time>
      </trkpt>
      <trkpt lat="59.204542558887" lon="17.782914904061">
        <ele>10.6</ele>
        <time>2017-09-05T17:56:52Z</time>
      </trkpt>
      <trkpt lat="59.204581869998" lon="17.783006602047">
        <ele>10.4</ele>
        <time>2017-09-05T17:56:53Z</time>
      </trkpt>
      <trkpt lat="59.204616403426" lon="17.783092851798">
        <ele>10.2</ele>
        <time>2017-09-05T17:56:54Z</time>
      </trkpt>
      <trkpt lat="59.204642471135" lon="17.783174742961">
        <ele>10.2</ele>
        <time>2017-09-05T17:56:55Z</time>
      </trkpt>
      <trkpt lat="59.20465881584" lon="17.783343386789">
        <ele>10</ele>
        <time>2017-09-05T17:56:57Z</time>
      </trkpt>
      <trkpt lat="59.204613805037" lon="17.783504989821">
        <ele>9.4</ele>
        <time>2017-09-05T17:56:59Z</time>
      </trkpt>
      <trkpt lat="59.204592515011" lon="17.783572547935">
        <ele>9.2</ele>
        <time>2017-09-05T17:57:00Z</time>
      </trkpt>
      <trkpt lat="59.20457583503" lon="17.783628371389">
        <ele>9.2</ele>
        <time>2017-09-05T17:57:01Z</time>
      </trkpt>
      <trkpt lat="59.204549264407" lon="17.783725349972">
        <ele>9</ele>
        <time>2017-09-05T17:57:03Z</time>
      </trkpt>
      <trkpt lat="59.204554964099" lon="17.783773126802">
        <ele>9</ele>
        <time>2017-09-05T17:57:04Z</time>
      </trkpt>
      <trkpt lat="59.204569716243" lon="17.783810510076">
        <ele>8.8</ele>
        <time>2017-09-05T17:57:05Z</time>
      </trkpt>
      <trkpt lat="59.204593520839" lon="17.783866417349">
        <ele>8.2</ele>
        <time>2017-09-05T17:57:07Z</time>
      </trkpt>
      <trkpt lat="59.204595700133" lon="17.783909165039">
        <ele>8</ele>
        <time>2017-09-05T17:57:08Z</time>
      </trkpt>
      <trkpt lat="59.204589329889" lon="17.783958115335">
        <ele>7.8</ele>
        <time>2017-09-05T17:57:09Z</time>
      </trkpt>
      <trkpt lat="59.204553371538" lon="17.784052830805">
        <ele>7.6</ele>
        <time>2017-09-05T17:57:11Z</time>
      </trkpt>
      <trkpt lat="59.204508360735" lon="17.784152240139">
        <ele>7.6</ele>
        <time>2017-09-05T17:57:13Z</time>
      </trkpt>
      <trkpt lat="59.204481371017" lon="17.784221055538">
        <ele>7.6</ele>
        <time>2017-09-05T17:57:14Z</time>
      </trkpt>
      <trkpt lat="59.204458823706" lon="17.784293894249">
        <ele>7.4</ele>
        <time>2017-09-05T17:57:15Z</time>
      </trkpt>
      <trkpt lat="59.204410963057" lon="17.784443762621">
        <ele>7.4</ele>
        <time>2017-09-05T17:57:17Z</time>
      </trkpt>
      <trkpt lat="59.204355810155" lon="17.784593463355">
        <ele>7.2</ele>
        <time>2017-09-05T17:57:19Z</time>
      </trkpt>
      <trkpt lat="59.204307446592" lon="17.784719108036">
        <ele>7</ele>
        <time>2017-09-05T17:57:21Z</time>
      </trkpt>
      <trkpt lat="59.204264112169" lon="17.7848327666">
        <ele>7</ele>
        <time>2017-09-05T17:57:23Z</time>
      </trkpt>
      <trkpt lat="59.204215497149" lon="17.784967882828">
        <ele>7</ele>
        <time>2017-09-05T17:57:25Z</time>
      </trkpt>
      <trkpt lat="59.204175850762" lon="17.785121523055">
        <ele>7</ele>
        <time>2017-09-05T17:57:27Z</time>
      </trkpt>
      <trkpt lat="59.204147017026" lon="17.785278264585">
        <ele>7.4</ele>
        <time>2017-09-05T17:57:29Z</time>
      </trkpt>
      <trkpt lat="59.204134444176" lon="17.78543542521">
        <ele>8.6</ele>
        <time>2017-09-05T17:57:31Z</time>
      </trkpt>
      <trkpt lat="59.204133354529" lon="17.785506838998">
        <ele>9</ele>
        <time>2017-09-05T17:57:32Z</time>
      </trkpt>
      <trkpt lat="59.204139389497" lon="17.785574900026">
        <ele>9.6</ele>
        <time>2017-09-05T17:57:33Z</time>
      </trkpt>
      <trkpt lat="59.204154057822" lon="17.78570029325">
        <ele>10.4</ele>
        <time>2017-09-05T17:57:35Z</time>
      </trkpt>
      <trkpt lat="59.2041844003" lon="17.785806994837">
        <ele>11.8</ele>
        <time>2017-09-05T17:57:37Z</time>
      </trkpt>
      <trkpt lat="59.204219269004" lon="17.785916462451">
        <ele>13</ele>
        <time>2017-09-05T17:57:39Z</time>
      </trkpt>
      <trkpt lat="59.204255730269" lon="17.786033138499">
        <ele>14</ele>
        <time>2017-09-05T17:57:41Z</time>
      </trkpt>
      <trkpt lat="59.204272996983" lon="17.786092063256">
        <ele>14.2</ele>
        <time>2017-09-05T17:57:42Z</time>
      </trkpt>
      <trkpt lat="59.204291520982" lon="17.786147216158">
        <ele>14.2</ele>
        <time>2017-09-05T17:57:43Z</time>
      </trkpt>
      <trkpt lat="59.204327227876" lon="17.786257521962">
        <ele>14.4</ele>
        <time>2017-09-05T17:57:45Z</time>
      </trkpt>
      <trkpt lat="59.204350697196" lon="17.786396410045">
        <ele>14.4</ele>
        <time>2017-09-05T17:57:47Z</time>
      </trkpt>
      <trkpt lat="59.204364443512" lon="17.786550720824">
        <ele>14.4</ele>
        <time>2017-09-05T17:57:49Z</time>
      </trkpt>
      <trkpt lat="59.204353463223" lon="17.786712407675">
        <ele>14.4</ele>
        <time>2017-09-05T17:57:51Z</time>
      </trkpt>
      <trkpt lat="59.204326138229" lon="17.786870909404">
        <ele>14.6</ele>
        <time>2017-09-05T17:57:53Z</time>
      </trkpt>
      <trkpt lat="59.204313230103" lon="17.787022035061">
        <ele>15</ele>
        <time>2017-09-05T17:57:55Z</time>
      </trkpt>
      <trkpt lat="59.204316415225" lon="17.787079283438">
        <ele>15.2</ele>
        <time>2017-09-05T17:57:56Z</time>
      </trkpt>
      <trkpt lat="59.204329658627" lon="17.787114738875">
        <ele>15.2</ele>
        <time>2017-09-05T17:57:57Z</time>
      </trkpt>
      <trkpt lat="59.204382380778" lon="17.787125300069">
        <ele>15.4</ele>
        <time>2017-09-05T17:57:59Z</time>
      </trkpt>
      <trkpt lat="59.204446167037" lon="17.787128485191">
        <ele>15.8</ele>
        <time>2017-09-05T17:58:01Z</time>
      </trkpt>
      <trkpt lat="59.204524956897" lon="17.787129826295">
        <ele>16.4</ele>
        <time>2017-09-05T17:58:03Z</time>
      </trkpt>
      <trkpt lat="59.204606764241" lon="17.787125300069">
        <ele>16.8</ele>
        <time>2017-09-05T17:58:05Z</time>
      </trkpt>
      <trkpt lat="59.204685889377" lon="17.787127982277">
        <ele>17</ele>
        <time>2017-09-05T17:58:07Z</time>
      </trkpt>
      <trkpt lat="59.20476358959" lon="17.787120690024">
        <ele>17</ele>
        <time>2017-09-05T17:58:09Z</time>
      </trkpt>
      <trkpt lat="59.204839361966" lon="17.787147093009">
        <ele>17.2</ele>
        <time>2017-09-05T17:58:11Z</time>
      </trkpt>
      <trkpt lat="59.204871799919" lon="17.787185146835">
        <ele>17.2</ele>
        <time>2017-09-05T17:58:12Z</time>
      </trkpt>
      <trkpt lat="59.204902896768" lon="17.78722328448">
        <ele>17.2</ele>
        <time>2017-09-05T17:58:13Z</time>
      </trkpt>
      <trkpt lat="59.204968359407" lon="17.787264858704">
        <ele>17.4</ele>
        <time>2017-09-05T17:58:15Z</time>
      </trkpt>
      <trkpt lat="59.20499912098" lon="17.787272821509">
        <ele>17.4</ele>
        <time>2017-09-05T17:58:16Z</time>
      </trkpt>
      <trkpt lat="59.205029631096" lon="17.787278269744">
        <ele>17.4</ele>
        <time>2017-09-05T17:58:17Z</time>
      </trkpt>
      <trkpt lat="59.205089394043" lon="17.787292099879">
        <ele>17.8</ele>
        <time>2017-09-05T17:58:19Z</time>
      </trkpt>
      <trkpt lat="59.205152342112" lon="17.787309115136">
        <ele>18.4</ele>
        <time>2017-09-05T17:58:21Z</time>
      </trkpt>
      <trkpt lat="59.20521872676" lon="17.787322945271">
        <ele>19.4</ele>
        <time>2017-09-05T17:58:23Z</time>
      </trkpt>
      <trkpt lat="59.205252505817" lon="17.78733392556">
        <ele>19.6</ele>
        <time>2017-09-05T17:58:24Z</time>
      </trkpt>
      <trkpt lat="59.205286536331" lon="17.78734482203">
        <ele>19.8</ele>
        <time>2017-09-05T17:58:25Z</time>
      </trkpt>
      <trkpt lat="59.205353004798" lon="17.78736493859">
        <ele>20</ele>
        <time>2017-09-05T17:58:27Z</time>
      </trkpt>
      <trkpt lat="59.205414108849" lon="17.787391928308">
        <ele>20.6</ele>
        <time>2017-09-05T17:58:29Z</time>
      </trkpt>
      <trkpt lat="59.205447384992" lon="17.787413134515">
        <ele>20.8</ele>
        <time>2017-09-05T17:58:30Z</time>
      </trkpt>
      <trkpt lat="59.205482924248" lon="17.78743534655">
        <ele>21</ele>
        <time>2017-09-05T17:58:31Z</time>
      </trkpt>
      <trkpt lat="59.205556349692" lon="17.787486727597">
        <ele>21</ele>
        <time>2017-09-05T17:58:33Z</time>
      </trkpt>
      <trkpt lat="59.20563279262" lon="17.787557051738">
        <ele>21.2</ele>
        <time>2017-09-05T17:58:35Z</time>
      </trkpt>
      <trkpt lat="59.205711331023" lon="17.787633494666">
        <ele>21.2</ele>
        <time>2017-09-05T17:58:37Z</time>
      </trkpt>
      <trkpt lat="59.20578785777" lon="17.787708428852">
        <ele>21.2</ele>
        <time>2017-09-05T17:58:39Z</time>
      </trkpt>
      <trkpt lat="59.205855667341" lon="17.787771963654">
        <ele>21</ele>
        <time>2017-09-05T17:58:41Z</time>
      </trkpt>
      <trkpt lat="59.205917358125" lon="17.787824099072">
        <ele>21.2</ele>
        <time>2017-09-05T17:58:43Z</time>
      </trkpt>
      <trkpt lat="59.205965218774" lon="17.787897943611">
        <ele>21.2</ele>
        <time>2017-09-05T17:58:45Z</time>
      </trkpt>
      <trkpt lat="59.205997740546" lon="17.787960556404">
        <ele>21.2</ele>
        <time>2017-09-05T17:58:47Z</time>
      </trkpt>
      <trkpt lat="59.206006122446" lon="17.787993329633">
        <ele>21.2</ele>
        <time>2017-09-05T17:58:48Z</time>
      </trkpt>
      <trkpt lat="59.206005535713" lon="17.788030042355">
        <ele>21.2</ele>
        <time>2017-09-05T17:58:49Z</time>
      </trkpt>
      <trkpt lat="59.205992292311" lon="17.788119728685">
        <ele>21.6</ele>
        <time>2017-09-05T17:58:51Z</time>
      </trkpt>
      <trkpt lat="59.205972008113" lon="17.788213522146">
        <ele>21.8</ele>
        <time>2017-09-05T17:58:53Z</time>
      </trkpt>
      <trkpt lat="59.205962285109" lon="17.788311758014">
        <ele>22.2</ele>
        <time>2017-09-05T17:58:55Z</time>
      </trkpt>
      <trkpt lat="59.205954070847" lon="17.788407898407">
        <ele>22.6</ele>
        <time>2017-09-05T17:58:57Z</time>
      </trkpt>
      <trkpt lat="59.205925069473" lon="17.788461961662">
        <ele>23</ele>
        <time>2017-09-05T17:58:59Z</time>
      </trkpt>
      <trkpt lat="59.20589346971" lon="17.788514432356">
        <ele>23.4</ele>
        <time>2017-09-05T17:59:01Z</time>
      </trkpt>
      <trkpt lat="59.205875448625" lon="17.788543266092">
        <ele>23.6</ele>
        <time>2017-09-05T17:59:02Z</time>
      </trkpt>
      <trkpt lat="59.205856673169" lon="17.788572938018">
        <ele>23.8</ele>
        <time>2017-09-05T17:59:03Z</time>
      </trkpt>
      <trkpt lat="59.205818451705" lon="17.788637897743">
        <ele>24.4</ele>
        <time>2017-09-05T17:59:05Z</time>
      </trkpt>
      <trkpt lat="59.205799424792" lon="17.788672934085">
        <ele>24.6</ele>
        <time>2017-09-05T17:59:06Z</time>
      </trkpt>
      <trkpt lat="59.205779978784" lon="17.788708305703">
        <ele>25</ele>
        <time>2017-09-05T17:59:07Z</time>
      </trkpt>
      <trkpt lat="59.205742008777" lon="17.788781982604">
        <ele>25.2</ele>
        <time>2017-09-05T17:59:09Z</time>
      </trkpt>
      <trkpt lat="59.205698758173" lon="17.788853396392">
        <ele>25.4</ele>
        <time>2017-09-05T17:59:11Z</time>
      </trkpt>
      <trkpt lat="59.205654334103" lon="17.78892648656">
        <ele>26</ele>
        <time>2017-09-05T17:59:13Z</time>
      </trkpt>
      <trkpt lat="59.205610245309" lon="17.789000666375">
        <ele>26.4</ele>
        <time>2017-09-05T17:59:15Z</time>
      </trkpt>
      <trkpt lat="59.205567749076" lon="17.789079540054">
        <ele>26.8</ele>
        <time>2017-09-05T17:59:17Z</time>
      </trkpt>
      <trkpt lat="59.20552718068" lon="17.789157575543">
        <ele>27</ele>
        <time>2017-09-05T17:59:19Z</time>
      </trkpt>
      <trkpt lat="59.205486696103" lon="17.789229827521">
        <ele>27.4</ele>
        <time>2017-09-05T17:59:21Z</time>
      </trkpt>
      <trkpt lat="59.205447804087" lon="17.789303001508">
        <ele>27.8</ele>
        <time>2017-09-05T17:59:23Z</time>
      </trkpt>
      <trkpt lat="59.205403882931" lon="17.789375840219">
        <ele>28.2</ele>
        <time>2017-09-05T17:59:25Z</time>
      </trkpt>
      <trkpt lat="59.205356441377" lon="17.789445158532">
        <ele>28.6</ele>
        <time>2017-09-05T17:59:27Z</time>
      </trkpt>
      <trkpt lat="59.205308748366" lon="17.789509196248">
        <ele>29.2</ele>
        <time>2017-09-05T17:59:29Z</time>
      </trkpt>
      <trkpt lat="59.205256948224" lon="17.789556470164">
        <ele>30.2</ele>
        <time>2017-09-05T17:59:31Z</time>
      </trkpt>
      <trkpt lat="59.205231970162" lon="17.789581448226">
        <ele>30.2</ele>
        <time>2017-09-05T17:59:32Z</time>
      </trkpt>
      <trkpt lat="59.205205567177" lon="17.789601732424">
        <ele>30.2</ele>
        <time>2017-09-05T17:59:33Z</time>
      </trkpt>
      <trkpt lat="59.205148151162" lon="17.789625285563">
        <ele>30.8</ele>
        <time>2017-09-05T17:59:35Z</time>
      </trkpt>
      <trkpt lat="59.205088974948" lon="17.789638612784">
        <ele>31.2</ele>
        <time>2017-09-05T17:59:37Z</time>
      </trkpt>
      <trkpt lat="59.2050309722" lon="17.78965655005">
        <ele>31.8</ele>
        <time>2017-09-05T17:59:39Z</time>
      </trkpt>
      <trkpt lat="59.204973556185" lon="17.789680103189">
        <ele>32.4</ele>
        <time>2017-09-05T17:59:41Z</time>
      </trkpt>
      <trkpt lat="59.204917397455" lon="17.789712289685">
        <ele>32.6</ele>
        <time>2017-09-05T17:59:43Z</time>
      </trkpt>
      <trkpt lat="59.204862076915" lon="17.78974456">
        <ele>32.8</ele>
        <time>2017-09-05T17:59:45Z</time>
      </trkpt>
      <trkpt lat="59.204812958981" lon="17.789750343511">
        <ele>33.2</ele>
        <time>2017-09-05T17:59:47Z</time>
      </trkpt>
      <trkpt lat="59.204793680611" lon="17.789763083999">
        <ele>33.6</ele>
        <time>2017-09-05T17:59:48Z</time>
      </trkpt>
      <trkpt lat="59.204790830765" lon="17.789791833916">
        <ele>34</ele>
        <time>2017-09-05T17:59:49Z</time>
      </trkpt>
      <trkpt lat="59.204815976465" lon="17.78981329158">
        <ele>34.4</ele>
        <time>2017-09-05T17:59:51Z</time>
      </trkpt>
      <trkpt lat="59.204825028917" lon="17.789774818659">
        <ele>34.4</ele>
        <time>2017-09-05T17:59:53Z</time>
      </trkpt>
      <trkpt lat="59.204799799398" lon="17.789758641592">
        <ele>34.8</ele>
        <time>2017-09-05T17:59:55Z</time>
      </trkpt>
      <trkpt lat="59.204787561824" lon="17.789855368718">
        <ele>34.8</ele>
        <time>2017-09-05T17:59:57Z</time>
      </trkpt>
      <trkpt lat="59.204801475778" lon="17.789975313707">
        <ele>35</ele>
        <time>2017-09-05T17:59:59Z</time>
      </trkpt>
      <trkpt lat="59.204816311741" lon="17.790101042207">
        <ele>35</ele>
        <time>2017-09-05T18:00:01Z</time>
      </trkpt>
      <trkpt lat="59.204833075541" lon="17.790230877838">
        <ele>35</ele>
        <time>2017-09-05T18:00:03Z</time>
      </trkpt>
      <trkpt lat="59.204851934816" lon="17.790368005722">
        <ele>35</ele>
        <time>2017-09-05T18:00:05Z</time>
      </trkpt>
      <trkpt lat="59.204865429675" lon="17.790515359524">
        <ele>35.2</ele>
        <time>2017-09-05T18:00:07Z</time>
      </trkpt>
      <trkpt lat="59.204882864027" lon="17.790665144077">
        <ele>35.6</ele>
        <time>2017-09-05T18:00:09Z</time>
      </trkpt>
      <trkpt lat="59.204903232044" lon="17.790816269734">
        <ele>36</ele>
        <time>2017-09-05T18:00:11Z</time>
      </trkpt>
      <trkpt lat="59.204913793238" lon="17.790890030454">
        <ele>36.4</ele>
        <time>2017-09-05T18:00:12Z</time>
      </trkpt>
      <trkpt lat="59.204924605889" lon="17.790960438414">
        <ele>36.6</ele>
        <time>2017-09-05T18:00:13Z</time>
      </trkpt>
      <trkpt lat="59.20494547682" lon="17.791085161086">
        <ele>37</ele>
        <time>2017-09-05T18:00:15Z</time>
      </trkpt>
      <trkpt lat="59.204975903117" lon="17.791170488828">
        <ele>37.2</ele>
        <time>2017-09-05T18:00:17Z</time>
      </trkpt>
      <trkpt lat="59.204995516763" lon="17.791195047795">
        <ele>37.2</ele>
        <time>2017-09-05T18:00:18Z</time>
      </trkpt>
      <trkpt lat="59.205016639151" lon="17.791197730003">
        <ele>37.4</ele>
        <time>2017-09-05T18:00:19Z</time>
      </trkpt>
      <trkpt lat="59.205062152868" lon="17.791168812448">
        <ele>37.6</ele>
        <time>2017-09-05T18:00:21Z</time>
      </trkpt>
      <trkpt lat="59.205110935526" lon="17.791137045047">
        <ele>38.2</ele>
        <time>2017-09-05T18:00:23Z</time>
      </trkpt>
      <trkpt lat="59.205135326855" lon="17.791131261536">
        <ele>38.6</ele>
        <time>2017-09-05T18:00:24Z</time>
      </trkpt>
      <trkpt lat="59.205159299089" lon="17.791126483853">
        <ele>38.6</ele>
        <time>2017-09-05T18:00:25Z</time>
      </trkpt>
      <trkpt lat="59.2051818464" lon="17.791120113609">
        <ele>38.8</ele>
        <time>2017-09-05T18:00:26Z</time>
      </trkpt>
      <trkpt lat="59.205203555521" lon="17.791115755021">
        <ele>38.8</ele>
        <time>2017-09-05T18:00:27Z</time>
      </trkpt>
      <trkpt lat="59.205242112261" lon="17.79111332427">
        <ele>39</ele>
        <time>2017-09-05T18:00:29Z</time>
      </trkpt>
      <trkpt lat="59.205271448911" lon="17.791110725881">
        <ele>39</ele>
        <time>2017-09-05T18:00:31Z</time>
      </trkpt>
      <trkpt lat="59.205290140548" lon="17.79110326599">
        <ele>39</ele>
        <time>2017-09-05T18:00:33Z</time>
      </trkpt>
      <trkpt lat="59.205351496056" lon="17.791048196907">
        <ele>38.8</ele>
        <time>2017-09-05T18:02:55Z</time>
      </trkpt>
      <trkpt lat="59.205383095819" lon="17.791000420077">
        <ele>38.6</ele>
        <time>2017-09-05T18:02:57Z</time>
      </trkpt>
      <trkpt lat="59.205420227636" lon="17.790930431212">
        <ele>38.6</ele>
        <time>2017-09-05T18:02:59Z</time>
      </trkpt>
      <trkpt lat="59.205473955615" lon="17.790853904465">
        <ele>38.6</ele>
        <time>2017-09-05T18:03:01Z</time>
      </trkpt>
      <trkpt lat="59.205508824319" lon="17.790798667744">
        <ele>38.6</ele>
        <time>2017-09-05T18:03:02Z</time>
      </trkpt>
      <trkpt lat="59.205544866489" lon="17.790738318064">
        <ele>38.4</ele>
        <time>2017-09-05T18:03:03Z</time>
      </trkpt>
      <trkpt lat="59.205624829815" lon="17.790603285655">
        <ele>38.2</ele>
        <time>2017-09-05T18:03:05Z</time>
      </trkpt>
      <trkpt lat="59.205657519225" lon="17.790531368953">
        <ele>38</ele>
        <time>2017-09-05T18:03:06Z</time>
      </trkpt>
      <trkpt lat="59.205680737088" lon="17.790459871346">
        <ele>37.8</ele>
        <time>2017-09-05T18:03:07Z</time>
      </trkpt>
      <trkpt lat="59.20568895135" lon="17.790314864476">
        <ele>37.6</ele>
        <time>2017-09-05T18:03:09Z</time>
      </trkpt>
      <trkpt lat="59.205637570303" lon="17.790198439885">
        <ele>36.8</ele>
        <time>2017-09-05T18:03:11Z</time>
      </trkpt>
      <trkpt lat="59.205605383807" lon="17.79016114043">
        <ele>36.4</ele>
        <time>2017-09-05T18:03:12Z</time>
      </trkpt>
      <trkpt lat="59.205575292786" lon="17.790124595346">
        <ele>35.6</ele>
        <time>2017-09-05T18:03:13Z</time>
      </trkpt>
      <trkpt lat="59.205550733819" lon="17.79008402695">
        <ele>35.2</ele>
        <time>2017-09-05T18:03:14Z</time>
      </trkpt>
      <trkpt lat="59.205530114345" lon="17.790041865993">
        <ele>34.8</ele>
        <time>2017-09-05T18:03:15Z</time>
      </trkpt>
      <trkpt lat="59.205498514582" lon="17.78996751854">
        <ele>34.4</ele>
        <time>2017-09-05T18:03:17Z</time>
      </trkpt>
      <trkpt lat="59.205488288664" lon="17.789937427519">
        <ele>34</ele>
        <time>2017-09-05T18:03:18Z</time>
      </trkpt>
      <trkpt lat="59.205480325859" lon="17.789917394778">
        <ele>33.6</ele>
        <time>2017-09-05T18:03:19Z</time>
      </trkpt>
      <trkpt lat="59.205475883452" lon="17.789907252679">
        <ele>33.4</ele>
        <time>2017-09-05T18:03:20Z</time>
      </trkpt>
      <trkpt lat="59.205437159074" lon="17.789851596863">
        <ele>33.4</ele>
        <time>2017-09-05T18:06:21Z</time>
      </trkpt>
      <trkpt lat="59.205401535999" lon="17.789821924937">
        <ele>33.4</ele>
        <time>2017-09-05T18:06:23Z</time>
      </trkpt>
      <trkpt lat="59.20536792458" lon="17.789751936072">
        <ele>33.2</ele>
        <time>2017-09-05T18:06:25Z</time>
      </trkpt>
      <trkpt lat="59.205327440003" lon="17.789672810936">
        <ele>33.2</ele>
        <time>2017-09-05T18:06:27Z</time>
      </trkpt>
      <trkpt lat="59.205315370067" lon="17.789616233111">
        <ele>33.2</ele>
        <time>2017-09-05T18:06:28Z</time>
      </trkpt>
      <trkpt lat="59.205318639008" lon="17.789549848463">
        <ele>33.2</ele>
        <time>2017-09-05T18:06:29Z</time>
      </trkpt>
      <trkpt lat="59.205371109702" lon="17.78943107694">
        <ele>33.2</ele>
        <time>2017-09-05T18:06:31Z</time>
      </trkpt>
      <trkpt lat="59.205437745807" lon="17.789308868838">
        <ele>33.2</ele>
        <time>2017-09-05T18:06:33Z</time>
      </trkpt>
      <trkpt lat="59.205511925622" lon="17.789195797007">
        <ele>33</ele>
        <time>2017-09-05T18:06:35Z</time>
      </trkpt>
      <trkpt lat="59.205582836496" lon="17.78906730248">
        <ele>32.8</ele>
        <time>2017-09-05T18:06:37Z</time>
      </trkpt>
      <trkpt lat="59.205664224745" lon="17.788924642542">
        <ele>32.4</ele>
        <time>2017-09-05T18:06:39Z</time>
      </trkpt>
      <trkpt lat="59.205756677102" lon="17.788785419183">
        <ele>31.6</ele>
        <time>2017-09-05T18:06:41Z</time>
      </trkpt>
      <trkpt lat="59.205845189966" lon="17.788640579951">
        <ele>30.4</ele>
        <time>2017-09-05T18:06:43Z</time>
      </trkpt>
      <trkpt lat="59.205922471084" lon="17.788474869788">
        <ele>29.8</ele>
        <time>2017-09-05T18:06:45Z</time>
      </trkpt>
      <trkpt lat="59.205948454974" lon="17.788380070499">
        <ele>29.4</ele>
        <time>2017-09-05T18:06:46Z</time>
      </trkpt>
      <trkpt lat="59.205966140783" lon="17.788283427192">
        <ele>29</ele>
        <time>2017-09-05T18:06:47Z</time>
      </trkpt>
      <trkpt lat="59.205997489089" lon="17.78810841312">
        <ele>28</ele>
        <time>2017-09-05T18:06:49Z</time>
      </trkpt>
      <trkpt lat="59.20600243441" lon="17.78795418616">
        <ele>27</ele>
        <time>2017-09-05T18:06:51Z</time>
      </trkpt>
      <trkpt lat="59.205983826592" lon="17.787892579195">
        <ele>26.6</ele>
        <time>2017-09-05T18:06:52Z</time>
      </trkpt>
      <trkpt lat="59.205953065019" lon="17.787844215632">
        <ele>26.2</ele>
        <time>2017-09-05T18:06:53Z</time>
      </trkpt>
      <trkpt lat="59.205914508279" lon="17.787807419091">
        <ele>25</ele>
        <time>2017-09-05T18:06:54Z</time>
      </trkpt>
      <trkpt lat="59.205873185512" lon="17.78777565169">
        <ele>24.4</ele>
        <time>2017-09-05T18:06:55Z</time>
      </trkpt>
      <trkpt lat="59.205833287668" lon="17.787737514045">
        <ele>24</ele>
        <time>2017-09-05T18:06:56Z</time>
      </trkpt>
      <trkpt lat="59.205792551634" lon="17.787689066663">
        <ele>23.8</ele>
        <time>2017-09-05T18:06:57Z</time>
      </trkpt>
      <trkpt lat="59.205703619675" lon="17.787583035628">
        <ele>23.2</ele>
        <time>2017-09-05T18:06:59Z</time>
      </trkpt>
      <trkpt lat="59.205606641092" lon="17.787487649606">
        <ele>22.6</ele>
        <time>2017-09-05T18:07:01Z</time>
      </trkpt>
      <trkpt lat="59.205504884826" lon="17.787411290497">
        <ele>22</ele>
        <time>2017-09-05T18:07:03Z</time>
      </trkpt>
      <trkpt lat="59.20540229037" lon="17.787351108455">
        <ele>21.8</ele>
        <time>2017-09-05T18:07:05Z</time>
      </trkpt>
      <trkpt lat="59.205301875208" lon="17.787307354937">
        <ele>21.8</ele>
        <time>2017-09-05T18:07:07Z</time>
      </trkpt>
      <trkpt lat="59.205250494161" lon="17.787292770431">
        <ele>21.6</ele>
        <time>2017-09-05T18:07:08Z</time>
      </trkpt>
      <trkpt lat="59.205198694019" lon="17.787277934468">
        <ele>21.6</ele>
        <time>2017-09-05T18:07:09Z</time>
      </trkpt>
      <trkpt lat="59.205087382387" lon="17.787242730488">
        <ele>21.6</ele>
        <time>2017-09-05T18:07:11Z</time>
      </trkpt>
      <trkpt lat="59.205026865069" lon="17.787233761855">
        <ele>21.6</ele>
        <time>2017-09-05T18:07:12Z</time>
      </trkpt>
      <trkpt lat="59.204962827353" lon="17.787230744371">
        <ele>21.6</ele>
        <time>2017-09-05T18:07:13Z</time>
      </trkpt>
      <trkpt lat="59.204824861279" lon="17.787232420751">
        <ele>21.2</ele>
        <time>2017-09-05T18:07:15Z</time>
      </trkpt>
      <trkpt lat="59.204678680943" lon="17.787258237003">
        <ele>21.2</ele>
        <time>2017-09-05T18:07:17Z</time>
      </trkpt>
      <trkpt lat="59.204533003521" lon="17.78727525226">
        <ele>21</ele>
        <time>2017-09-05T18:07:19Z</time>
      </trkpt>
      <trkpt lat="59.204389505393" lon="17.787267121817">
        <ele>20.4</ele>
        <time>2017-09-05T18:07:21Z</time>
      </trkpt>
      <trkpt lat="59.204249862939" lon="17.787272821509">
        <ele>19</ele>
        <time>2017-09-05T18:07:23Z</time>
      </trkpt>
      <trkpt lat="59.204184232662" lon="17.787270306939">
        <ele>18.2</ele>
        <time>2017-09-05T18:07:24Z</time>
      </trkpt>
      <trkpt lat="59.204121619869" lon="17.787253040225">
        <ele>17.6</ele>
        <time>2017-09-05T18:07:25Z</time>
      </trkpt>
      <trkpt lat="59.204004273269" lon="17.787227140154">
        <ele>16.8</ele>
        <time>2017-09-05T18:07:27Z</time>
      </trkpt>
      <trkpt lat="59.203896984949" lon="17.787216830417">
        <ele>16.6</ele>
        <time>2017-09-05T18:07:29Z</time>
      </trkpt>
      <trkpt lat="59.203793971398" lon="17.787218087702">
        <ele>16.6</ele>
        <time>2017-09-05T18:07:31Z</time>
      </trkpt>
      <trkpt lat="59.203693304779" lon="17.787223116842">
        <ele>16.6</ele>
        <time>2017-09-05T18:07:33Z</time>
      </trkpt>
      <trkpt lat="59.203593811626" lon="17.787236611701">
        <ele>16.6</ele>
        <time>2017-09-05T18:07:35Z</time>
      </trkpt>
      <trkpt lat="59.203495575758" lon="17.787246250886">
        <ele>17.4</ele>
        <time>2017-09-05T18:07:37Z</time>
      </trkpt>
      <trkpt lat="59.203399686822" lon="17.78725429751">
        <ele>18</ele>
        <time>2017-09-05T18:07:39Z</time>
      </trkpt>
      <trkpt lat="59.203302708239" lon="17.787262008858">
        <ele>18.4</ele>
        <time>2017-09-05T18:07:41Z</time>
      </trkpt>
      <trkpt lat="59.203215368841" lon="17.787218171521">
        <ele>18.6</ele>
        <time>2017-09-05T18:07:43Z</time>
      </trkpt>
      <trkpt lat="59.203139093551" lon="17.787141393317">
        <ele>18.8</ele>
        <time>2017-09-05T18:07:45Z</time>
      </trkpt>
      <trkpt lat="59.203060722786" lon="17.78714868557">
        <ele>19</ele>
        <time>2017-09-05T18:07:47Z</time>
      </trkpt>
      <trkpt lat="59.202994589595" lon="17.787226134326">
        <ele>19</ele>
        <time>2017-09-05T18:07:49Z</time>
      </trkpt>
      <trkpt lat="59.202934072277" lon="17.787296961381">
        <ele>19</ele>
        <time>2017-09-05T18:07:51Z</time>
      </trkpt>
      <trkpt lat="59.202876153348" lon="17.787324286375">
        <ele>19.2</ele>
        <time>2017-09-05T18:07:53Z</time>
      </trkpt>
      <trkpt lat="59.202834327667" lon="17.787331830085">
        <ele>19.4</ele>
        <time>2017-09-05T18:07:55Z</time>
      </trkpt>
      <trkpt lat="59.20281731241" lon="17.787337026863">
        <ele>19.4</ele>
        <time>2017-09-05T18:07:57Z</time>
      </trkpt>
      <trkpt lat="59.202779090946" lon="17.787360160907">
        <ele>20.4</ele>
        <time>2017-09-05T18:08:25Z</time>
      </trkpt>
      <trkpt lat="59.20273014065" lon="17.787387402082">
        <ele>20.4</ele>
        <time>2017-09-05T18:08:27Z</time>
      </trkpt>
      <trkpt lat="59.2026924221" lon="17.787409697936">
        <ele>20.4</ele>
        <time>2017-09-05T18:08:28Z</time>
      </trkpt>
      <trkpt lat="59.202647914211" lon="17.787429143944">
        <ele>20.4</ele>
        <time>2017-09-05T18:08:29Z</time>
      </trkpt>
      <trkpt lat="59.202543811013" lon="17.787462420087">
        <ele>20.4</ele>
        <time>2017-09-05T18:08:31Z</time>
      </trkpt>
      <trkpt lat="59.202489999215" lon="17.78748312338">
        <ele>20.4</ele>
        <time>2017-09-05T18:08:32Z</time>
      </trkpt>
      <trkpt lat="59.202441132738" lon="17.787505503053">
        <ele>20.4</ele>
        <time>2017-09-05T18:08:33Z</time>
      </trkpt>
      <trkpt lat="59.202351781684" lon="17.787548837476">
        <ele>20.4</ele>
        <time>2017-09-05T18:08:35Z</time>
      </trkpt>
      <trkpt lat="59.202269555245" lon="17.787574318452">
        <ele>20</ele>
        <time>2017-09-05T18:08:37Z</time>
      </trkpt>
      <trkpt lat="59.20219537543" lon="17.787597452496">
        <ele>20</ele>
        <time>2017-09-05T18:08:39Z</time>
      </trkpt>
      <trkpt lat="59.202131086257" lon="17.787636009236">
        <ele>20</ele>
        <time>2017-09-05T18:08:41Z</time>
      </trkpt>
      <trkpt lat="59.202072412957" lon="17.787655539063">
        <ele>20.2</ele>
        <time>2017-09-05T18:08:43Z</time>
      </trkpt>
      <trkpt lat="59.202017092417" lon="17.787671632311">
        <ele>20.2</ele>
        <time>2017-09-05T18:08:45Z</time>
      </trkpt>
      <trkpt lat="59.20195816766" lon="17.787667441361">
        <ele>20.8</ele>
        <time>2017-09-05T18:08:47Z</time>
      </trkpt>
      <trkpt lat="59.201928244277" lon="17.787664675334">
        <ele>21</ele>
        <time>2017-09-05T18:08:48Z</time>
      </trkpt>
      <trkpt lat="59.201896895971" lon="17.787663501868">
        <ele>21</ele>
        <time>2017-09-05T18:08:49Z</time>
      </trkpt>
      <trkpt lat="59.201831265694" lon="17.787678924564">
        <ele>21.2</ele>
        <time>2017-09-05T18:08:51Z</time>
      </trkpt>
      <trkpt lat="59.20176454577" lon="17.787692084147">
        <ele>21.4</ele>
        <time>2017-09-05T18:08:53Z</time>
      </trkpt>
      <trkpt lat="59.201693634896" lon="17.787708009757">
        <ele>21.2</ele>
        <time>2017-09-05T18:08:55Z</time>
      </trkpt>
      <trkpt lat="59.201619119805" lon="17.787725025014">
        <ele>21.4</ele>
        <time>2017-09-05T18:08:57Z</time>
      </trkpt>
      <trkpt lat="59.201540581402" lon="17.787734412742">
        <ele>21.4</ele>
        <time>2017-09-05T18:08:59Z</time>
      </trkpt>
      <trkpt lat="59.201457181497" lon="17.787749081067">
        <ele>21.4</ele>
        <time>2017-09-05T18:09:01Z</time>
      </trkpt>
      <trkpt lat="59.201371099384" lon="17.787790403834">
        <ele>21.4</ele>
        <time>2017-09-05T18:09:03Z</time>
      </trkpt>
      <trkpt lat="59.201277892656" lon="17.787831391325">
        <ele>21.4</ele>
        <time>2017-09-05T18:09:05Z</time>
      </trkpt>
      <trkpt lat="59.201181416987" lon="17.787909342995">
        <ele>21.4</ele>
        <time>2017-09-05T18:09:07Z</time>
      </trkpt>
      <trkpt lat="59.20108058273" lon="17.788018642971">
        <ele>21.4</ele>
        <time>2017-09-05T18:09:09Z</time>
      </trkpt>
      <trkpt lat="59.20097580898" lon="17.78815535176">
        <ele>21.2</ele>
        <time>2017-09-05T18:09:11Z</time>
      </trkpt>
      <trkpt lat="59.200867514832" lon="17.788323241217">
        <ele>20.8</ele>
        <time>2017-09-05T18:09:13Z</time>
      </trkpt>
      <trkpt lat="59.200749330042" lon="17.788494734891">
        <ele>19.6</ele>
        <time>2017-09-05T18:09:15Z</time>
      </trkpt>
      <trkpt lat="59.200624691189" lon="17.788670670972">
        <ele>19</ele>
        <time>2017-09-05T18:09:17Z</time>
      </trkpt>
      <trkpt lat="59.200493262997" lon="17.788848702528">
        <ele>18.4</ele>
        <time>2017-09-05T18:09:19Z</time>
      </trkpt>
      <trkpt lat="59.200355296923" lon="17.789038384925">
        <ele>17.2</ele>
        <time>2017-09-05T18:09:21Z</time>
      </trkpt>
      <trkpt lat="59.200211882614" lon="17.789235527213">
        <ele>16.2</ele>
        <time>2017-09-05T18:09:23Z</time>
      </trkpt>
      <trkpt lat="59.200064109717" lon="17.789439291202">
        <ele>15.4</ele>
        <time>2017-09-05T18:09:25Z</time>
      </trkpt>
      <trkpt lat="59.199988253522" lon="17.789547250074">
        <ele>14.8</ele>
        <time>2017-09-05T18:09:26Z</time>
      </trkpt>
      <trkpt lat="59.199915247173" lon="17.789662836475">
        <ele>14.4</ele>
        <time>2017-09-05T18:09:27Z</time>
      </trkpt>
      <trkpt lat="59.199844671575" lon="17.789785296034">
        <ele>13.8</ele>
        <time>2017-09-05T18:09:28Z</time>
      </trkpt>
      <trkpt lat="59.199777029642" lon="17.789904319014">
        <ele>13</ele>
        <time>2017-09-05T18:09:29Z</time>
      </trkpt>
      <trkpt lat="59.199711483184" lon="17.790016887931">
        <ele>12.4</ele>
        <time>2017-09-05T18:09:30Z</time>
      </trkpt>
      <trkpt lat="59.199648451296" lon="17.79012342188">
        <ele>11.8</ele>
        <time>2017-09-05T18:09:31Z</time>
      </trkpt>
      <trkpt lat="59.199588017797" lon="17.790223082671">
        <ele>11.2</ele>
        <time>2017-09-05T18:09:32Z</time>
      </trkpt>
      <trkpt lat="59.199530266506" lon="17.790312517544">
        <ele>10.4</ele>
        <time>2017-09-05T18:09:33Z</time>
      </trkpt>
      <trkpt lat="59.199476454708" lon="17.790390553033">
        <ele>9.8</ele>
        <time>2017-09-05T18:09:34Z</time>
      </trkpt>
      <trkpt lat="59.199427001498" lon="17.790444867745">
        <ele>9</ele>
        <time>2017-09-05T18:09:35Z</time>
      </trkpt>
      <trkpt lat="59.199380481953" lon="17.79046624159">
        <ele>8.2</ele>
        <time>2017-09-05T18:09:36Z</time>
      </trkpt>
      <trkpt lat="59.199338740091" lon="17.790455093663">
        <ele>7.4</ele>
        <time>2017-09-05T18:09:37Z</time>
      </trkpt>
      <trkpt lat="59.199298674609" lon="17.790404802263">
        <ele>6.6</ele>
        <time>2017-09-05T18:09:38Z</time>
      </trkpt>
      <trkpt lat="59.199278055135" lon="17.790320145073">
        <ele>5.6</ele>
        <time>2017-09-05T18:09:39Z</time>
      </trkpt>
      <trkpt lat="59.199266320475" lon="17.790219562273">
        <ele>5</ele>
        <time>2017-09-05T18:09:40Z</time>
      </trkpt>
      <trkpt lat="59.199259782593" lon="17.790112441591">
        <ele>4.6</ele>
        <time>2017-09-05T18:09:41Z</time>
      </trkpt>
      <trkpt lat="59.199259866412" lon="17.789992328964">
        <ele>4.2</ele>
        <time>2017-09-05T18:09:42Z</time>
      </trkpt>
      <trkpt lat="59.199261375154" lon="17.78987196488">
        <ele>4.2</ele>
        <time>2017-09-05T18:09:43Z</time>
      </trkpt>
      <trkpt lat="59.199266404294" lon="17.789620926975">
        <ele>4</ele>
        <time>2017-09-05T18:09:45Z</time>
      </trkpt>
      <trkpt lat="59.199269170321" lon="17.789363015912">
        <ele>3.8</ele>
        <time>2017-09-05T18:09:47Z</time>
      </trkpt>
      <trkpt lat="59.199279899153" lon="17.789102674098">
        <ele>3.8</ele>
        <time>2017-09-05T18:09:49Z</time>
      </trkpt>
      <trkpt lat="59.199300099532" lon="17.788847864338">
        <ele>3.6</ele>
        <time>2017-09-05T18:09:51Z</time>
      </trkpt>
      <trkpt lat="59.199309068165" lon="17.78860126884">
        <ele>3.4</ele>
        <time>2017-09-05T18:09:53Z</time>
      </trkpt>
      <trkpt lat="59.199318204436" lon="17.788357187912">
        <ele>3</ele>
        <time>2017-09-05T18:09:55Z</time>
      </trkpt>
      <trkpt lat="59.199322227748" lon="17.788114448088">
        <ele>2.8</ele>
        <time>2017-09-05T18:09:57Z</time>
      </trkpt>
      <trkpt lat="59.199321054282" lon="17.78786198526">
        <ele>2.6</ele>
        <time>2017-09-05T18:09:59Z</time>
      </trkpt>
      <trkpt lat="59.199323065938" lon="17.787746566497">
        <ele>2.6</ele>
        <time>2017-09-05T18:10:00Z</time>
      </trkpt>
      <trkpt lat="59.199324909956" lon="17.787635171046">
        <ele>2.6</ele>
        <time>2017-09-05T18:10:01Z</time>
      </trkpt>
      <trkpt lat="59.199330190553" lon="17.78741774456">
        <ele>2.6</ele>
        <time>2017-09-05T18:10:03Z</time>
      </trkpt>
      <trkpt lat="59.199340835566" lon="17.787201072445">
        <ele>2.6</ele>
        <time>2017-09-05T18:10:05Z</time>
      </trkpt>
      <trkpt lat="59.199348379276" lon="17.7869869149">
        <ele>2.6</ele>
        <time>2017-09-05T18:10:07Z</time>
      </trkpt>
      <trkpt lat="59.199353743692" lon="17.786777535038">
        <ele>2.6</ele>
        <time>2017-09-05T18:10:09Z</time>
      </trkpt>
      <trkpt lat="59.19936229323" lon="17.786568071357">
        <ele>2.6</ele>
        <time>2017-09-05T18:10:11Z</time>
      </trkpt>
      <trkpt lat="59.199370088397" lon="17.786355338735">
        <ele>2.6</ele>
        <time>2017-09-05T18:10:13Z</time>
      </trkpt>
      <trkpt lat="59.199376793917" lon="17.786137576973">
        <ele>2.6</ele>
        <time>2017-09-05T18:10:15Z</time>
      </trkpt>
      <trkpt lat="59.199383918532" lon="17.785907996732">
        <ele>2.6</ele>
        <time>2017-09-05T18:10:17Z</time>
      </trkpt>
      <trkpt lat="59.199395737011" lon="17.785674896093">
        <ele>2.4</ele>
        <time>2017-09-05T18:10:19Z</time>
      </trkpt>
      <trkpt lat="59.199422223815" lon="17.785439113246">
        <ele>2.2</ele>
        <time>2017-09-05T18:10:21Z</time>
      </trkpt>
      <trkpt lat="59.19944192128" lon="17.785322521017">
        <ele>2</ele>
        <time>2017-09-05T18:10:22Z</time>
      </trkpt>
      <trkpt lat="59.199468240446" lon="17.785212215213">
        <ele>1.8</ele>
        <time>2017-09-05T18:10:23Z</time>
      </trkpt>
      <trkpt lat="59.199499337295" lon="17.785108363472">
        <ele>1.6</ele>
        <time>2017-09-05T18:10:24Z</time>
      </trkpt>
      <trkpt lat="59.199531523791" lon="17.785009121776">
        <ele>1.4</ele>
        <time>2017-09-05T18:10:25Z</time>
      </trkpt>
      <trkpt lat="59.199565805762" lon="17.784917256152">
        <ele>1.2</ele>
        <time>2017-09-05T18:10:26Z</time>
      </trkpt>
      <trkpt lat="59.199602350846" lon="17.784835616446">
        <ele>1.2</ele>
        <time>2017-09-05T18:10:27Z</time>
      </trkpt>
      <trkpt lat="59.199677620308" lon="17.784692202137">
        <ele>0.8</ele>
        <time>2017-09-05T18:10:29Z</time>
      </trkpt>
      <trkpt lat="59.199750123743" lon="17.784561612135">
        <ele>0.6</ele>
        <time>2017-09-05T18:10:31Z</time>
      </trkpt>
      <trkpt lat="59.199816927486" lon="17.784441415689">
        <ele>0.6</ele>
        <time>2017-09-05T18:10:33Z</time>
      </trkpt>
      <trkpt lat="59.199882222487" lon="17.784327924763">
        <ele>0.6</ele>
        <time>2017-09-05T18:10:35Z</time>
      </trkpt>
      <trkpt lat="59.199946763117" lon="17.78421837333">
        <ele>0.6</ele>
        <time>2017-09-05T18:10:37Z</time>
      </trkpt>
      <trkpt lat="59.200008789177" lon="17.784106223508">
        <ele>1</ele>
        <time>2017-09-05T18:10:39Z</time>
      </trkpt>
      <trkpt lat="59.200070982875" lon="17.783986529976">
        <ele>1.2</ele>
        <time>2017-09-05T18:10:41Z</time>
      </trkpt>
      <trkpt lat="59.200130662003" lon="17.78385543706">
        <ele>1.6</ele>
        <time>2017-09-05T18:10:43Z</time>
      </trkpt>
      <trkpt lat="59.200190257312" lon="17.78374563417">
        <ele>1.6</ele>
        <time>2017-09-05T18:10:45Z</time>
      </trkpt>
      <trkpt lat="59.200253959752" lon="17.783655361107">
        <ele>1.6</ele>
        <time>2017-09-05T18:10:47Z</time>
      </trkpt>
      <trkpt lat="59.200281200927" lon="17.783607081363">
        <ele>1.8</ele>
        <time>2017-09-05T18:10:48Z</time>
      </trkpt>
      <trkpt lat="59.200306262808" lon="17.783563160207">
        <ele>2</ele>
        <time>2017-09-05T18:10:49Z</time>
      </trkpt>
      <trkpt lat="59.20034884286" lon="17.783497613749">
        <ele>2.2</ele>
        <time>2017-09-05T18:10:51Z</time>
      </trkpt>
      <trkpt lat="59.20036309209" lon="17.783476239904">
        <ele>2.4</ele>
        <time>2017-09-05T18:10:52Z</time>
      </trkpt>
      <trkpt lat="59.200370887257" lon="17.783460314294">
        <ele>2.4</ele>
        <time>2017-09-05T18:10:53Z</time>
      </trkpt>
      <trkpt lat="59.200373737103" lon="17.783452351489">
        <ele>2.6</ele>
        <time>2017-09-05T18:10:54Z</time>
      </trkpt>
      <trkpt lat="59.200399301898" lon="17.783404658478">
        <ele>3.8</ele>
        <time>2017-09-05T18:11:15Z</time>
      </trkpt>
      <trkpt lat="59.200421011019" lon="17.783363335711">
        <ele>3.8</ele>
        <time>2017-09-05T18:11:17Z</time>
      </trkpt>
      <trkpt lat="59.200430063471" lon="17.783288233887">
        <ele>3.8</ele>
        <time>2017-09-05T18:11:19Z</time>
      </trkpt>
      <trkpt lat="59.20040164883" lon="17.783179604463">
        <ele>3.8</ele>
        <time>2017-09-05T18:11:21Z</time>
      </trkpt>
      <trkpt lat="59.200343226987" lon="17.783037028344">
        <ele>3.8</ele>
        <time>2017-09-05T18:11:23Z</time>
      </trkpt>
      <trkpt lat="59.200304670247" lon="17.782957065018">
        <ele>3.8</ele>
        <time>2017-09-05T18:11:24Z</time>
      </trkpt>
      <trkpt lat="59.200260581453" lon="17.782866037584">
        <ele>3.8</ele>
        <time>2017-09-05T18:11:25Z</time>
      </trkpt>
      <trkpt lat="59.20016527925" lon="17.782662608871">
        <ele>3.8</ele>
        <time>2017-09-05T18:11:27Z</time>
      </trkpt>
      <trkpt lat="59.200120352266" lon="17.782537970018">
        <ele>3.8</ele>
        <time>2017-09-05T18:11:28Z</time>
      </trkpt>
      <trkpt lat="59.200087830494" lon="17.782392208777">
        <ele>3.6</ele>
        <time>2017-09-05T18:11:29Z</time>
      </trkpt>
      <trkpt lat="59.200077436938" lon="17.782058022424">
        <ele>3</ele>
        <time>2017-09-05T18:11:31Z</time>
      </trkpt>
      <trkpt lat="59.200124710854" lon="17.781715454171">
        <ele>2.4</ele>
        <time>2017-09-05T18:11:33Z</time>
      </trkpt>
      <trkpt lat="59.200159495739" lon="17.781547480895">
        <ele>1.8</ele>
        <time>2017-09-05T18:11:34Z</time>
      </trkpt>
      <trkpt lat="59.200196376099" lon="17.781379339981">
        <ele>1.8</ele>
        <time>2017-09-05T18:11:35Z</time>
      </trkpt>
      <trkpt lat="59.200265107679" lon="17.781034676253">
        <ele>1.4</ele>
        <time>2017-09-05T18:11:37Z</time>
      </trkpt>
      <trkpt lat="59.200293773777" lon="17.780855806507">
        <ele>0.8</ele>
        <time>2017-09-05T18:11:38Z</time>
      </trkpt>
      <trkpt lat="59.200316907821" lon="17.780674338372">
        <ele>0.6</ele>
        <time>2017-09-05T18:11:39Z</time>
      </trkpt>
      <trkpt lat="59.200352027982" lon="17.780308803713">
        <ele>0.4</ele>
        <time>2017-09-05T18:11:41Z</time>
      </trkpt>
      <trkpt lat="59.200371557809" lon="17.77993438424">
        <ele>0.4</ele>
        <time>2017-09-05T18:11:43Z</time>
      </trkpt>
      <trkpt lat="59.200404079581" lon="17.779562060242">
        <ele>0.4</ele>
        <time>2017-09-05T18:11:45Z</time>
      </trkpt>
      <trkpt lat="59.200459316302" lon="17.779200800352">
        <ele>0.4</ele>
        <time>2017-09-05T18:11:47Z</time>
      </trkpt>
      <trkpt lat="59.200532909384" lon="17.778856388081">
        <ele>0.8</ele>
        <time>2017-09-05T18:11:49Z</time>
      </trkpt>
      <trkpt lat="59.200577584911" lon="17.778696126153">
        <ele>0.8</ele>
        <time>2017-09-05T18:11:50Z</time>
      </trkpt>
      <trkpt lat="59.200625864655" lon="17.778544329944">
        <ele>1</ele>
        <time>2017-09-05T18:11:51Z</time>
      </trkpt>
      <trkpt lat="59.200720077211" lon="17.778254483842">
        <ele>1</ele>
        <time>2017-09-05T18:11:53Z</time>
      </trkpt>
      <trkpt lat="59.200814960319" lon="17.777987604146">
        <ele>1.4</ele>
        <time>2017-09-05T18:11:55Z</time>
      </trkpt>
      <trkpt lat="59.200915543119" lon="17.777754335869">
        <ele>1.6</ele>
        <time>2017-09-05T18:11:57Z</time>
      </trkpt>
      <trkpt lat="59.200969606374" lon="17.777653920707">
        <ele>1.8</ele>
        <time>2017-09-05T18:11:58Z</time>
      </trkpt>
      <trkpt lat="59.201026435656" lon="17.777565743119">
        <ele>2</ele>
        <time>2017-09-05T18:11:59Z</time>
      </trkpt>
      <trkpt lat="59.201148979034" lon="17.777421909715">
        <ele>3.4</ele>
        <time>2017-09-05T18:12:01Z</time>
      </trkpt>
      <trkpt lat="59.20127755738" lon="17.77732090782">
        <ele>4.2</ele>
        <time>2017-09-05T18:12:03Z</time>
      </trkpt>
      <trkpt lat="59.201344361123" lon="17.777295259206">
        <ele>4.6</ele>
        <time>2017-09-05T18:12:04Z</time>
      </trkpt>
      <trkpt lat="59.201411919237" lon="17.777283608365">
        <ele>5</ele>
        <time>2017-09-05T18:12:05Z</time>
      </trkpt>
      <trkpt lat="59.201482494835" lon="17.777285787659">
        <ele>5.6</ele>
        <time>2017-09-05T18:12:06Z</time>
      </trkpt>
      <trkpt lat="59.201554830632" lon="17.777292493179">
        <ele>6.2</ele>
        <time>2017-09-05T18:12:07Z</time>
      </trkpt>
      <trkpt lat="59.201628842809" lon="17.777300539803">
        <ele>7</ele>
        <time>2017-09-05T18:12:08Z</time>
      </trkpt>
      <trkpt lat="59.201704447547" lon="17.77731839325">
        <ele>7.6</ele>
        <time>2017-09-05T18:12:09Z</time>
      </trkpt>
      <trkpt lat="59.201778878819" lon="17.77733515705">
        <ele>8.4</ele>
        <time>2017-09-05T18:12:10Z</time>
      </trkpt>
      <trkpt lat="59.201855657023" lon="17.777351334117">
        <ele>8.8</ele>
        <time>2017-09-05T18:12:11Z</time>
      </trkpt>
      <trkpt lat="59.201933189598" lon="17.777363404053">
        <ele>9.4</ele>
        <time>2017-09-05T18:12:12Z</time>
      </trkpt>
      <trkpt lat="59.202010805992" lon="17.777375557808">
        <ele>10.2</ele>
        <time>2017-09-05T18:12:13Z</time>
      </trkpt>
      <trkpt lat="59.202089176757" lon="17.777390226133">
        <ele>10.8</ele>
        <time>2017-09-05T18:12:14Z</time>
      </trkpt>
      <trkpt lat="59.202168385712" lon="17.777395842006">
        <ele>11.4</ele>
        <time>2017-09-05T18:12:15Z</time>
      </trkpt>
      <trkpt lat="59.202243906631" lon="17.777398775671">
        <ele>11.8</ele>
        <time>2017-09-05T18:12:16Z</time>
      </trkpt>
      <trkpt lat="59.202318337903" lon="17.777402296069">
        <ele>12.2</ele>
        <time>2017-09-05T18:12:17Z</time>
      </trkpt>
      <trkpt lat="59.20247197813" lon="17.777401541698">
        <ele>12.8</ele>
        <time>2017-09-05T18:12:19Z</time>
      </trkpt>
      <trkpt lat="59.202546660859" lon="17.777395925825">
        <ele>13</ele>
        <time>2017-09-05T18:12:20Z</time>
      </trkpt>
      <trkpt lat="59.202619415751" lon="17.777387208649">
        <ele>13.2</ele>
        <time>2017-09-05T18:12:21Z</time>
      </trkpt>
      <trkpt lat="59.202763081517" lon="17.777352507583">
        <ele>14</ele>
        <time>2017-09-05T18:12:23Z</time>
      </trkpt>
      <trkpt lat="59.202834243848" lon="17.777328954444">
        <ele>14.4</ele>
        <time>2017-09-05T18:12:24Z</time>
      </trkpt>
      <trkpt lat="59.202902304876" lon="17.777301210355">
        <ele>15</ele>
        <time>2017-09-05T18:12:25Z</time>
      </trkpt>
      <trkpt lat="59.202969192438" lon="17.777270700239">
        <ele>15.4</ele>
        <time>2017-09-05T18:12:26Z</time>
      </trkpt>
      <trkpt lat="59.203034571258" lon="17.777238010829">
        <ele>16</ele>
        <time>2017-09-05T18:12:27Z</time>
      </trkpt>
      <trkpt lat="59.203161892319" lon="17.777162657548">
        <ele>17</ele>
        <time>2017-09-05T18:12:29Z</time>
      </trkpt>
      <trkpt lat="59.203284100421" lon="17.777078754729">
        <ele>17.4</ele>
        <time>2017-09-05T18:12:31Z</time>
      </trkpt>
      <trkpt lat="59.203402117573" lon="17.776988230209">
        <ele>17.6</ele>
        <time>2017-09-05T18:12:33Z</time>
      </trkpt>
      <trkpt lat="59.203515776137" lon="17.776898376241">
        <ele>18.2</ele>
        <time>2017-09-05T18:12:35Z</time>
      </trkpt>
      <trkpt lat="59.203568749745" lon="17.776847079013">
        <ele>19</ele>
        <time>2017-09-05T18:12:36Z</time>
      </trkpt>
      <trkpt lat="59.203620382249" lon="17.776792931939">
        <ele>19.4</ele>
        <time>2017-09-05T18:12:37Z</time>
      </trkpt>
      <trkpt lat="59.203719372488" lon="17.776687319999">
        <ele>19.8</ele>
        <time>2017-09-05T18:12:39Z</time>
      </trkpt>
      <trkpt lat="59.203807130981" lon="17.776589000312">
        <ele>20.2</ele>
        <time>2017-09-05T18:12:41Z</time>
      </trkpt>
      <trkpt lat="59.203846022997" lon="17.776540469111">
        <ele>20.6</ele>
        <time>2017-09-05T18:12:42Z</time>
      </trkpt>
      <trkpt lat="59.20388349009" lon="17.77649529067">
        <ele>21</ele>
        <time>2017-09-05T18:12:43Z</time>
      </trkpt>
      <trkpt lat="59.203949120367" lon="17.776408370367">
        <ele>21.6</ele>
        <time>2017-09-05T18:12:45Z</time>
      </trkpt>
      <trkpt lat="59.204007206934" lon="17.776326311566">
        <ele>22</ele>
        <time>2017-09-05T18:12:47Z</time>
      </trkpt>
      <trkpt lat="59.204054397031" lon="17.776251712656">
        <ele>22.6</ele>
        <time>2017-09-05T18:12:49Z</time>
      </trkpt>
      <trkpt lat="59.204074681229" lon="17.776222124549">
        <ele>22.8</ele>
        <time>2017-09-05T18:12:50Z</time>
      </trkpt>
      <trkpt lat="59.2040921994" lon="17.776195386288">
        <ele>23</ele>
        <time>2017-09-05T18:12:51Z</time>
      </trkpt>
      <trkpt lat="59.204121787507" lon="17.7761491182">
        <ele>23.4</ele>
        <time>2017-09-05T18:12:53Z</time>
      </trkpt>
      <trkpt lat="59.204144418637" lon="17.776111232012">
        <ele>23.6</ele>
        <time>2017-09-05T18:12:55Z</time>
      </trkpt>
      <trkpt lat="59.204154476917" lon="17.776083404104">
        <ele>24</ele>
        <time>2017-09-05T18:12:57Z</time>
      </trkpt>
      <trkpt lat="59.204188842707" lon="17.775964045848">
        <ele>44.8</ele>
        <time>2017-09-05T18:16:30Z</time>
      </trkpt>
      <trkpt lat="59.204204935955" lon="17.775932697542">
        <ele>24.2</ele>
        <time>2017-09-05T18:16:31Z</time>
      </trkpt>
      <trkpt lat="59.204255730269" lon="17.775822475557">
        <ele>24.2</ele>
        <time>2017-09-05T18:16:33Z</time>
      </trkpt>
      <trkpt lat="59.204327227876" lon="17.775668248597">
        <ele>24.2</ele>
        <time>2017-09-05T18:16:35Z</time>
      </trkpt>
      <trkpt lat="59.204412052704" lon="17.775470351938">
        <ele>24</ele>
        <time>2017-09-05T18:16:37Z</time>
      </trkpt>
      <trkpt lat="59.204496039342" lon="17.775260385343">
        <ele>24</ele>
        <time>2017-09-05T18:16:39Z</time>
      </trkpt>
      <trkpt lat="59.204579774523" lon="17.775023680487">
        <ele>23.8</ele>
        <time>2017-09-05T18:16:41Z</time>
      </trkpt>
      <trkpt lat="59.204654457252" lon="17.774769373641">
        <ele>23.2</ele>
        <time>2017-09-05T18:16:43Z</time>
      </trkpt>
      <trkpt lat="59.204710029249" lon="17.774459913893">
        <ele>22.4</ele>
        <time>2017-09-05T18:16:45Z</time>
      </trkpt>
      <trkpt lat="59.204755626785" lon="17.774126481911">
        <ele>22.2</ele>
        <time>2017-09-05T18:16:47Z</time>
      </trkpt>
      <trkpt lat="59.204784963435" lon="17.773775280301">
        <ele>22</ele>
        <time>2017-09-05T18:16:49Z</time>
      </trkpt>
      <trkpt lat="59.204786472177" lon="17.773412846945">
        <ele>21.8</ele>
        <time>2017-09-05T18:16:51Z</time>
      </trkpt>
      <trkpt lat="59.204762835219" lon="17.773053095797">
        <ele>21.6</ele>
        <time>2017-09-05T18:16:53Z</time>
      </trkpt>
      <trkpt lat="59.204707766136" lon="17.772697284142">
        <ele>21.2</ele>
        <time>2017-09-05T18:16:55Z</time>
      </trkpt>
      <trkpt lat="59.204644818067" lon="17.77233703008">
        <ele>20.8</ele>
        <time>2017-09-05T18:16:57Z</time>
      </trkpt>
      <trkpt lat="59.204578852514" lon="17.771963700254">
        <ele>20.2</ele>
        <time>2017-09-05T18:16:59Z</time>
      </trkpt>
      <trkpt lat="59.204524034888" lon="17.771576707931">
        <ele>19.8</ele>
        <time>2017-09-05T18:17:01Z</time>
      </trkpt>
      <trkpt lat="59.204484388501" lon="17.771193990377">
        <ele>19.8</ele>
        <time>2017-09-05T18:17:03Z</time>
      </trkpt>
      <trkpt lat="59.204455806222" lon="17.771030710965">
        <ele>19.4</ele>
        <time>2017-09-05T18:17:04Z</time>
      </trkpt>
      <trkpt lat="59.204404089899" lon="17.770905485379">
        <ele>19.2</ele>
        <time>2017-09-05T18:17:05Z</time>
      </trkpt>
      <trkpt lat="59.204334352491" lon="17.770830886469">
        <ele>18.8</ele>
        <time>2017-09-05T18:17:06Z</time>
      </trkpt>
      <trkpt lat="59.204249360025" lon="17.770793167919">
        <ele>18.4</ele>
        <time>2017-09-05T18:17:07Z</time>
      </trkpt>
      <trkpt lat="59.204156320935" lon="17.77076374745">
        <ele>18</ele>
        <time>2017-09-05T18:17:08Z</time>
      </trkpt>
      <trkpt lat="59.20405699542" lon="17.770724520158">
        <ele>17.2</ele>
        <time>2017-09-05T18:17:09Z</time>
      </trkpt>
      <trkpt lat="59.203846106816" lon="17.770616728924">
        <ele>16.4</ele>
        <time>2017-09-05T18:17:11Z</time>
      </trkpt>
      <trkpt lat="59.203738399401" lon="17.770552607389">
        <ele>15.8</ele>
        <time>2017-09-05T18:17:12Z</time>
      </trkpt>
      <trkpt lat="59.203630859624" lon="17.770478092298">
        <ele>15.6</ele>
        <time>2017-09-05T18:17:13Z</time>
      </trkpt>
      <trkpt lat="59.203417121174" lon="17.770291595023">
        <ele>15.2</ele>
        <time>2017-09-05T18:17:15Z</time>
      </trkpt>
      <trkpt lat="59.2033126827" lon="17.770179780477">
        <ele>14.6</ele>
        <time>2017-09-05T18:17:16Z</time>
      </trkpt>
      <trkpt lat="59.203209669149" lon="17.770055728357">
        <ele>13.8</ele>
        <time>2017-09-05T18:17:17Z</time>
      </trkpt>
      <trkpt lat="59.203107577607" lon="17.769923126699">
        <ele>12.6</ele>
        <time>2017-09-05T18:17:18Z</time>
      </trkpt>
      <trkpt lat="59.20300590516" lon="17.769785747358">
        <ele>11.6</ele>
        <time>2017-09-05T18:17:19Z</time>
      </trkpt>
      <trkpt lat="59.202799291325" lon="17.769502187681">
        <ele>10</ele>
        <time>2017-09-05T18:17:21Z</time>
      </trkpt>
      <trkpt lat="59.202593934775" lon="17.769210162285">
        <ele>9</ele>
        <time>2017-09-05T18:17:23Z</time>
      </trkpt>
      <trkpt lat="59.202392433899" lon="17.768930039187">
        <ele>8</ele>
        <time>2017-09-05T18:17:25Z</time>
      </trkpt>
      <trkpt lat="59.202219263845" lon="17.768666009337">
        <ele>6.8</ele>
        <time>2017-09-05T18:17:27Z</time>
      </trkpt>
      <trkpt lat="59.202139132881" lon="17.768544387968">
        <ele>6.6</ele>
        <time>2017-09-05T18:17:28Z</time>
      </trkpt>
      <trkpt lat="59.20206126503" lon="17.768422598961">
        <ele>6.6</ele>
        <time>2017-09-05T18:17:29Z</time>
      </trkpt>
      <trkpt lat="59.201905110233" lon="17.768202909362">
        <ele>6.4</ele>
        <time>2017-09-05T18:17:31Z</time>
      </trkpt>
      <trkpt lat="59.201755744775" lon="17.767995960251">
        <ele>6.4</ele>
        <time>2017-09-05T18:17:33Z</time>
      </trkpt>
      <trkpt lat="59.201602691281" lon="17.767788424407">
        <ele>6.4</ele>
        <time>2017-09-05T18:17:35Z</time>
      </trkpt>
      <trkpt lat="59.201450140701" lon="17.767578793088">
        <ele>7.2</ele>
        <time>2017-09-05T18:17:37Z</time>
      </trkpt>
      <trkpt lat="59.201370428832" lon="17.767464799248">
        <ele>7.8</ele>
        <time>2017-09-05T18:17:38Z</time>
      </trkpt>
      <trkpt lat="59.20129013023" lon="17.767351392141">
        <ele>8.6</ele>
        <time>2017-09-05T18:17:39Z</time>
      </trkpt>
      <trkpt lat="59.201211508008" lon="17.767240080509">
        <ele>9.8</ele>
        <time>2017-09-05T18:17:40Z</time>
      </trkpt>
      <trkpt lat="59.201131796139" lon="17.767129858524">
        <ele>10.4</ele>
        <time>2017-09-05T18:17:41Z</time>
      </trkpt>
      <trkpt lat="59.201050826985" lon="17.767021983471">
        <ele>11</ele>
        <time>2017-09-05T18:17:42Z</time>
      </trkpt>
      <trkpt lat="59.200970360745" lon="17.76691310259">
        <ele>11.2</ele>
        <time>2017-09-05T18:17:43Z</time>
      </trkpt>
      <trkpt lat="59.200807584247" lon="17.766695759923">
        <ele>11.6</ele>
        <time>2017-09-05T18:17:45Z</time>
      </trkpt>
      <trkpt lat="59.200645645939" lon="17.766469532442">
        <ele>12</ele>
        <time>2017-09-05T18:17:47Z</time>
      </trkpt>
      <trkpt lat="59.200489407323" lon="17.766249004653">
        <ele>12.2</ele>
        <time>2017-09-05T18:17:49Z</time>
      </trkpt>
      <trkpt lat="59.200342053521" lon="17.766050269804">
        <ele>12.4</ele>
        <time>2017-09-05T18:17:51Z</time>
      </trkpt>
      <trkpt lat="59.200203500714" lon="17.765868634031">
        <ele>12.6</ele>
        <time>2017-09-05T18:17:53Z</time>
      </trkpt>
      <trkpt lat="59.200068635943" lon="17.765701750402">
        <ele>13.2</ele>
        <time>2017-09-05T18:17:55Z</time>
      </trkpt>
      <trkpt lat="59.199937207751" lon="17.765538638628">
        <ele>13.8</ele>
        <time>2017-09-05T18:17:57Z</time>
      </trkpt>
      <trkpt lat="59.199808294129" lon="17.765377119415">
        <ele>14.4</ele>
        <time>2017-09-05T18:17:59Z</time>
      </trkpt>
      <trkpt lat="59.199682230353" lon="17.765212666537">
        <ele>15.6</ele>
        <time>2017-09-05T18:18:01Z</time>
      </trkpt>
      <trkpt lat="59.199555831301" lon="17.765057685206">
        <ele>17</ele>
        <time>2017-09-05T18:18:03Z</time>
      </trkpt>
      <trkpt lat="59.199428677878" lon="17.764903458246">
        <ele>17.8</ele>
        <time>2017-09-05T18:18:05Z</time>
      </trkpt>
      <trkpt lat="59.19936816056" lon="17.764818717237">
        <ele>18.2</ele>
        <time>2017-09-05T18:18:06Z</time>
      </trkpt>
      <trkpt lat="59.199310996002" lon="17.764727019251">
        <ele>18.2</ele>
        <time>2017-09-05T18:18:07Z</time>
      </trkpt>
      <trkpt lat="59.199204881148" lon="17.76452593747">
        <ele>19</ele>
        <time>2017-09-05T18:18:09Z</time>
      </trkpt>
      <trkpt lat="59.199153500101" lon="17.764422085729">
        <ele>19.4</ele>
        <time>2017-09-05T18:18:10Z</time>
      </trkpt>
      <trkpt lat="59.199103963072" lon="17.76431638997">
        <ele>19.6</ele>
        <time>2017-09-05T18:18:11Z</time>
      </trkpt>
      <trkpt lat="59.199007906498" lon="17.764095862181">
        <ele>20.4</ele>
        <time>2017-09-05T18:18:13Z</time>
      </trkpt>
      <trkpt lat="59.198923584584" lon="17.763860749886">
        <ele>21.2</ele>
        <time>2017-09-05T18:18:15Z</time>
      </trkpt>
      <trkpt lat="59.198885195482" lon="17.763739966707">
        <ele>21.4</ele>
        <time>2017-09-05T18:18:16Z</time>
      </trkpt>
      <trkpt lat="59.198847225475" lon="17.763619351166">
        <ele>21.6</ele>
        <time>2017-09-05T18:18:17Z</time>
      </trkpt>
      <trkpt lat="59.198770782547" lon="17.763372839487">
        <ele>22</ele>
        <time>2017-09-05T18:18:19Z</time>
      </trkpt>
      <trkpt lat="59.19869174123" lon="17.763116772442">
        <ele>22.4</ele>
        <time>2017-09-05T18:18:21Z</time>
      </trkpt>
      <trkpt lat="59.198603647461" lon="17.762861711225">
        <ele>22.6</ele>
        <time>2017-09-05T18:18:23Z</time>
      </trkpt>
      <trkpt lat="59.198499041349" lon="17.762618468487">
        <ele>23</ele>
        <time>2017-09-05T18:18:25Z</time>
      </trkpt>
      <trkpt lat="59.19838161093" lon="17.762384278201">
        <ele>23</ele>
        <time>2017-09-05T18:18:27Z</time>
      </trkpt>
      <trkpt lat="59.198255128059" lon="17.762155200874">
        <ele>23.2</ele>
        <time>2017-09-05T18:18:29Z</time>
      </trkpt>
      <trkpt lat="59.198116994347" lon="17.761942132976">
        <ele>23.4</ele>
        <time>2017-09-05T18:18:31Z</time>
      </trkpt>
      <trkpt lat="59.198042898351" lon="17.761840963443">
        <ele>23.6</ele>
        <time>2017-09-05T18:18:32Z</time>
      </trkpt>
      <trkpt lat="59.19796754507" lon="17.761740464462">
        <ele>23.8</ele>
        <time>2017-09-05T18:18:33Z</time>
      </trkpt>
      <trkpt lat="59.197889090486" lon="17.761646838639">
        <ele>23.8</ele>
        <time>2017-09-05T18:18:34Z</time>
      </trkpt>
      <trkpt lat="59.197808205151" lon="17.761560253612">
        <ele>23.8</ele>
        <time>2017-09-05T18:18:35Z</time>
      </trkpt>
      <trkpt lat="59.19764568011" lon="17.761379791305">
        <ele>23.6</ele>
        <time>2017-09-05T18:18:37Z</time>
      </trkpt>
      <trkpt lat="59.197486088734" lon="17.761206285975">
        <ele>23.4</ele>
        <time>2017-09-05T18:18:39Z</time>
      </trkpt>
      <trkpt lat="59.197331023584" lon="17.761037474509">
        <ele>23.2</ele>
        <time>2017-09-05T18:18:41Z</time>
      </trkpt>
      <trkpt lat="59.197193476605" lon="17.760879559513">
        <ele>23.2</ele>
        <time>2017-09-05T18:18:43Z</time>
      </trkpt>
      <trkpt lat="59.197091385063" lon="17.760734217367">
        <ele>23.4</ele>
        <time>2017-09-05T18:18:45Z</time>
      </trkpt>
      <trkpt lat="59.197014606859" lon="17.760611171075">
        <ele>23.4</ele>
        <time>2017-09-05T18:18:47Z</time>
      </trkpt>
      <trkpt lat="59.196967416762" lon="17.760537997088">
        <ele>23.4</ele>
        <time>2017-09-05T18:18:49Z</time>
      </trkpt>
      <trkpt lat="59.196940846139" lon="17.760503547479">
        <ele>23.4</ele>
        <time>2017-09-05T18:18:51Z</time>
      </trkpt>
      <trkpt lat="59.196927602737" lon="17.760488460059">
        <ele>23.6</ele>
        <time>2017-09-05T18:18:53Z</time>
      </trkpt>
      <trkpt lat="59.196890303282" lon="17.760497680149">
        <ele>25</ele>
        <time>2017-09-05T18:19:16Z</time>
      </trkpt>
      <trkpt lat="59.196874964405" lon="17.760510085361">
        <ele>25</ele>
        <time>2017-09-05T18:19:17Z</time>
      </trkpt>
      <trkpt lat="59.196846214488" lon="17.760552330137">
        <ele>25</ele>
        <time>2017-09-05T18:19:19Z</time>
      </trkpt>
      <trkpt lat="59.19684017952" lon="17.760580996235">
        <ele>25</ele>
        <time>2017-09-05T18:19:20Z</time>
      </trkpt>
      <trkpt lat="59.196842107357" lon="17.760610584342">
        <ele>25</ele>
        <time>2017-09-05T18:19:21Z</time>
      </trkpt>
      <trkpt lat="59.196855099302" lon="17.760662971217">
        <ele>25</ele>
        <time>2017-09-05T18:19:23Z</time>
      </trkpt>
      <trkpt lat="59.196876305509" lon="17.760709909857">
        <ele>25</ele>
        <time>2017-09-05T18:19:25Z</time>
      </trkpt>
      <trkpt lat="59.196905474521" lon="17.760751484081">
        <ele>25</ele>
        <time>2017-09-05T18:19:27Z</time>
      </trkpt>
      <trkpt lat="59.196936906646" lon="17.760791298106">
        <ele>25</ele>
        <time>2017-09-05T18:19:29Z</time>
      </trkpt>
      <trkpt lat="59.196969176961" lon="17.760829435751">
        <ele>25</ele>
        <time>2017-09-05T18:19:31Z</time>
      </trkpt>
      <trkpt lat="59.197004045665" lon="17.760857347478">
        <ele>25</ele>
        <time>2017-09-05T18:19:33Z</time>
      </trkpt>
      <trkpt lat="59.197039501102" lon="17.760887270861">
        <ele>24.8</ele>
        <time>2017-09-05T18:19:35Z</time>
      </trkpt>
      <trkpt lat="59.197076130005" lon="17.760931527293">
        <ele>24.8</ele>
        <time>2017-09-05T18:19:37Z</time>
      </trkpt>
      <trkpt lat="59.197117536591" lon="17.760971844232">
        <ele>24.8</ele>
        <time>2017-09-05T18:19:39Z</time>
      </trkpt>
      <trkpt lat="59.197158440263" lon="17.761018279958">
        <ele>24.8</ele>
        <time>2017-09-05T18:19:41Z</time>
      </trkpt>
      <trkpt lat="59.197202948152" lon="17.761065721512">
        <ele>24.6</ele>
        <time>2017-09-05T18:19:43Z</time>
      </trkpt>
      <trkpt lat="59.197247623679" lon="17.761116515826">
        <ele>24.6</ele>
        <time>2017-09-05T18:19:45Z</time>
      </trkpt>
      <trkpt lat="59.197290539007" lon="17.761167142502">
        <ele>24.6</ele>
        <time>2017-09-05T18:19:47Z</time>
      </trkpt>
      <trkpt lat="59.19733135886" lon="17.761212488581">
        <ele>24.6</ele>
        <time>2017-09-05T18:19:49Z</time>
      </trkpt>
      <trkpt lat="59.197365221736" lon="17.761258253755">
        <ele>24.6</ele>
        <time>2017-09-05T18:19:51Z</time>
      </trkpt>
      <trkpt lat="59.19739841406" lon="17.761297397228">
        <ele>24.6</ele>
        <time>2017-09-05T18:19:53Z</time>
      </trkpt>
      <trkpt lat="59.197429259452" lon="17.761334445226">
        <ele>24.6</ele>
        <time>2017-09-05T18:19:55Z</time>
      </trkpt>
      <trkpt lat="59.197455327161" lon="17.761362859867">
        <ele>24.6</ele>
        <time>2017-09-05T18:19:57Z</time>
      </trkpt>
      <trkpt lat="59.19748642401" lon="17.761392447974">
        <ele>24.6</ele>
        <time>2017-09-05T18:19:59Z</time>
      </trkpt>
      <trkpt lat="59.197512575538" lon="17.761425305022">
        <ele>24.6</ele>
        <time>2017-09-05T18:20:01Z</time>
      </trkpt>
      <trkpt lat="59.197534033202" lon="17.761468136531">
        <ele>24.8</ele>
        <time>2017-09-05T18:20:03Z</time>
      </trkpt>
      <trkpt lat="59.197555407047" lon="17.761511051859">
        <ele>24.8</ele>
        <time>2017-09-05T18:20:05Z</time>
      </trkpt>
      <trkpt lat="59.197578121996" lon="17.761527312745">
        <ele>25</ele>
        <time>2017-09-05T18:20:07Z</time>
      </trkpt>
      <trkpt lat="59.19758533043" lon="17.761525971641">
        <ele>25</ele>
        <time>2017-09-05T18:20:09Z</time>
      </trkpt>
      <trkpt lat="59.197633358717" lon="17.76155036297">
        <ele>24.8</ele>
        <time>2017-09-05T18:22:26Z</time>
      </trkpt>
      <trkpt lat="59.197650876888" lon="17.761560337431">
        <ele>24.8</ele>
        <time>2017-09-05T18:22:27Z</time>
      </trkpt>
      <trkpt lat="59.197699827184" lon="17.761606773157">
        <ele>24.8</ele>
        <time>2017-09-05T18:22:29Z</time>
      </trkpt>
      <trkpt lat="59.197774845189" lon="17.761683216085">
        <ele>24.8</ele>
        <time>2017-09-05T18:22:31Z</time>
      </trkpt>
      <trkpt lat="59.197863358053" lon="17.76178421798">
        <ele>24.8</ele>
        <time>2017-09-05T18:22:33Z</time>
      </trkpt>
      <trkpt lat="59.197952290012" lon="17.761888069721">
        <ele>24.6</ele>
        <time>2017-09-05T18:22:35Z</time>
      </trkpt>
      <trkpt lat="59.198039042677" lon="17.762006086873">
        <ele>24.6</ele>
        <time>2017-09-05T18:22:37Z</time>
      </trkpt>
      <trkpt lat="59.19812596298" lon="17.762133407934">
        <ele>24.4</ele>
        <time>2017-09-05T18:22:39Z</time>
      </trkpt>
      <trkpt lat="59.198210117256" lon="17.76226533904">
        <ele>24.2</ele>
        <time>2017-09-05T18:22:41Z</time>
      </trkpt>
      <trkpt lat="59.198289912944" lon="17.762404897675">
        <ele>24</ele>
        <time>2017-09-05T18:22:43Z</time>
      </trkpt>
      <trkpt lat="59.198364176578" lon="17.762555604237">
        <ele>24</ele>
        <time>2017-09-05T18:22:45Z</time>
      </trkpt>
      <trkpt lat="59.198431986149" lon="17.76271377069">
        <ele>24</ele>
        <time>2017-09-05T18:22:47Z</time>
      </trkpt>
      <trkpt lat="59.198498538435" lon="17.762872942971">
        <ele>24</ele>
        <time>2017-09-05T18:22:49Z</time>
      </trkpt>
      <trkpt lat="59.198563162884" lon="17.763035970926">
        <ele>24</ele>
        <time>2017-09-05T18:22:51Z</time>
      </trkpt>
      <trkpt lat="59.198619740709" lon="17.763207632238">
        <ele>24</ele>
        <time>2017-09-05T18:22:53Z</time>
      </trkpt>
      <trkpt lat="59.198670032109" lon="17.763381137568">
        <ele>23.8</ele>
        <time>2017-09-05T18:22:55Z</time>
      </trkpt>
      <trkpt lat="59.198709762315" lon="17.763552379785">
        <ele>24</ele>
        <time>2017-09-05T18:22:57Z</time>
      </trkpt>
      <trkpt lat="59.198743457553" lon="17.763717251758">
        <ele>24</ele>
        <time>2017-09-05T18:22:59Z</time>
      </trkpt>
      <trkpt lat="59.198786708157" lon="17.763870053795">
        <ele>24</ele>
        <time>2017-09-05T18:23:01Z</time>
      </trkpt>
      <trkpt lat="59.198835490815" lon="17.764018581063">
        <ele>24.2</ele>
        <time>2017-09-05T18:23:03Z</time>
      </trkpt>
      <trkpt lat="59.198881926541" lon="17.764155792766">
        <ele>24.2</ele>
        <time>2017-09-05T18:23:05Z</time>
      </trkpt>
      <trkpt lat="59.19892643443" lon="17.764249502408">
        <ele>24.2</ele>
        <time>2017-09-05T18:23:07Z</time>
      </trkpt>
      <trkpt lat="59.198965242627" lon="17.764317563436">
        <ele>24.2</ele>
        <time>2017-09-05T18:23:09Z</time>
      </trkpt>
      <trkpt lat="59.198998854046" lon="17.764383528989">
        <ele>24.2</ele>
        <time>2017-09-05T18:23:11Z</time>
      </trkpt>
      <trkpt lat="59.199029364162" lon="17.764450416551">
        <ele>24.2</ele>
        <time>2017-09-05T18:23:13Z</time>
      </trkpt>
      <trkpt lat="59.199068256178" lon="17.764528116764">
        <ele>24.2</ele>
        <time>2017-09-05T18:23:15Z</time>
      </trkpt>
      <trkpt lat="59.199112177334" lon="17.764618892741">
        <ele>24.2</ele>
        <time>2017-09-05T18:23:17Z</time>
      </trkpt>
      <trkpt lat="59.199160457078" lon="17.764717966799">
        <ele>24</ele>
        <time>2017-09-05T18:23:19Z</time>
      </trkpt>
      <trkpt lat="59.199210245564" lon="17.764811089708">
        <ele>23.8</ele>
        <time>2017-09-05T18:23:21Z</time>
      </trkpt>
      <trkpt lat="59.199230948857" lon="17.76485702252">
        <ele>23.6</ele>
        <time>2017-09-05T18:23:22Z</time>
      </trkpt>
      <trkpt lat="59.199246203915" lon="17.764901027495">
        <ele>23.4</ele>
        <time>2017-09-05T18:23:23Z</time>
      </trkpt>
      <trkpt lat="59.199256848928" lon="17.76498358921">
        <ele>23.4</ele>
        <time>2017-09-05T18:23:25Z</time>
      </trkpt>
      <trkpt lat="59.199251400693" lon="17.765052488428">
        <ele>23</ele>
        <time>2017-09-05T18:23:27Z</time>
      </trkpt>
      <trkpt lat="59.199255675462" lon="17.765104204751">
        <ele>22.8</ele>
        <time>2017-09-05T18:23:29Z</time>
      </trkpt>
      <trkpt lat="59.199284090103" lon="17.765100600534">
        <ele>22.6</ele>
        <time>2017-09-05T18:23:31Z</time>
      </trkpt>
      <trkpt lat="59.199317198608" lon="17.765020972484">
        <ele>22.6</ele>
        <time>2017-09-05T18:23:33Z</time>
      </trkpt>
      <trkpt lat="59.199315438409" lon="17.764893483785">
        <ele>22.6</ele>
        <time>2017-09-05T18:23:35Z</time>
      </trkpt>
      <trkpt lat="59.199267242484" lon="17.764747387268">
        <ele>22.6</ele>
        <time>2017-09-05T18:23:37Z</time>
      </trkpt>
      <trkpt lat="59.19923153559" lon="17.764671950168">
        <ele>22.6</ele>
        <time>2017-09-05T18:23:38Z</time>
      </trkpt>
      <trkpt lat="59.199191805384" lon="17.764590059005">
        <ele>22.4</ele>
        <time>2017-09-05T18:23:39Z</time>
      </trkpt>
      <trkpt lat="59.199106226185" lon="17.764404567558">
        <ele>22.2</ele>
        <time>2017-09-05T18:23:41Z</time>
      </trkpt>
      <trkpt lat="59.199023832108" lon="17.764186638158">
        <ele>22</ele>
        <time>2017-09-05T18:23:43Z</time>
      </trkpt>
      <trkpt lat="59.198942527678" lon="17.763962589971">
        <ele>22</ele>
        <time>2017-09-05T18:23:45Z</time>
      </trkpt>
      <trkpt lat="59.198868683139" lon="17.763732758273">
        <ele>22</ele>
        <time>2017-09-05T18:23:47Z</time>
      </trkpt>
      <trkpt lat="59.198796431161" lon="17.763498232711">
        <ele>22</ele>
        <time>2017-09-05T18:23:49Z</time>
      </trkpt>
      <trkpt lat="59.198726023201" lon="17.763257253086">
        <ele>22</ele>
        <time>2017-09-05T18:23:51Z</time>
      </trkpt>
      <trkpt lat="59.198644299676" lon="17.763021889334">
        <ele>23</ele>
        <time>2017-09-05T18:23:53Z</time>
      </trkpt>
      <trkpt lat="59.198599791787" lon="17.762905297105">
        <ele>23.4</ele>
        <time>2017-09-05T18:23:54Z</time>
      </trkpt>
      <trkpt lat="59.198552769328" lon="17.762787866686">
        <ele>23.6</ele>
        <time>2017-09-05T18:23:55Z</time>
      </trkpt>
      <trkpt lat="59.198450929243" lon="17.762555520418">
        <ele>23.6</ele>
        <time>2017-09-05T18:23:57Z</time>
      </trkpt>
      <trkpt lat="59.198338947059" lon="17.762333735344">
        <ele>23.8</ele>
        <time>2017-09-05T18:23:59Z</time>
      </trkpt>
      <trkpt lat="59.198217158052" lon="17.762119745437">
        <ele>23.8</ele>
        <time>2017-09-05T18:24:01Z</time>
      </trkpt>
      <trkpt lat="59.198081119815" lon="17.761924866262">
        <ele>23.8</ele>
        <time>2017-09-05T18:24:03Z</time>
      </trkpt>
      <trkpt lat="59.197936867316" lon="17.761740213005">
        <ele>23.6</ele>
        <time>2017-09-05T18:24:05Z</time>
      </trkpt>
      <trkpt lat="59.197785993116" lon="17.761570898625">
        <ele>23.2</ele>
        <time>2017-09-05T18:24:07Z</time>
      </trkpt>
      <trkpt lat="59.197635035097" lon="17.761396806562">
        <ele>23.2</ele>
        <time>2017-09-05T18:24:09Z</time>
      </trkpt>
      <trkpt lat="59.19748223306" lon="17.761225480526">
        <ele>23</ele>
        <time>2017-09-05T18:24:11Z</time>
      </trkpt>
      <trkpt lat="59.197329431023" lon="17.761050131178">
        <ele>22.8</ele>
        <time>2017-09-05T18:24:13Z</time>
      </trkpt>
      <trkpt lat="59.197174365873" lon="17.760876961124">
        <ele>22.6</ele>
        <time>2017-09-05T18:24:15Z</time>
      </trkpt>
      <trkpt lat="59.197018462533" lon="17.760700186853">
        <ele>22.2</ele>
        <time>2017-09-05T18:24:17Z</time>
      </trkpt>
      <trkpt lat="59.196944785632" lon="17.760601950985">
        <ele>22</ele>
        <time>2017-09-05T18:24:18Z</time>
      </trkpt>
      <trkpt lat="59.196872785111" lon="17.760499356529">
        <ele>22</ele>
        <time>2017-09-05T18:24:19Z</time>
      </trkpt>
      <trkpt lat="59.196733142657" lon="17.760285785717">
        <ele>22</ele>
        <time>2017-09-05T18:24:21Z</time>
      </trkpt>
      <trkpt lat="59.196595344221" lon="17.760072634">
        <ele>22</ele>
        <time>2017-09-05T18:24:23Z</time>
      </trkpt>
      <trkpt lat="59.196532982885" lon="17.759953108106">
        <ele>21.8</ele>
        <time>2017-09-05T18:24:24Z</time>
      </trkpt>
      <trkpt lat="59.196474393404" lon="17.759823523932">
        <ele>21.8</ele>
        <time>2017-09-05T18:24:25Z</time>
      </trkpt>
      <trkpt lat="59.196361908306" lon="17.75954205973">
        <ele>21.8</ele>
        <time>2017-09-05T18:24:27Z</time>
      </trkpt>
      <trkpt lat="59.19625177014" lon="17.759237880579">
        <ele>21.6</ele>
        <time>2017-09-05T18:24:29Z</time>
      </trkpt>
      <trkpt lat="59.196144565639" lon="17.75891760818">
        <ele>21.4</ele>
        <time>2017-09-05T18:24:31Z</time>
      </trkpt>
      <trkpt lat="59.196043815201" lon="17.758585517302">
        <ele>21.4</ele>
        <time>2017-09-05T18:24:33Z</time>
      </trkpt>
      <trkpt lat="59.19593912527" lon="17.758259209935">
        <ele>21.2</ele>
        <time>2017-09-05T18:24:35Z</time>
      </trkpt>
      <trkpt lat="59.195889085327" lon="17.758095176152">
        <ele>21</ele>
        <time>2017-09-05T18:24:36Z</time>
      </trkpt>
      <trkpt lat="59.195839799755" lon="17.757931310007">
        <ele>21</ele>
        <time>2017-09-05T18:24:37Z</time>
      </trkpt>
      <trkpt lat="59.195742402077" lon="17.757616569662">
        <ele>20.6</ele>
        <time>2017-09-05T18:24:39Z</time>
      </trkpt>
      <trkpt lat="59.195733014349" lon="17.75728229949">
        <ele>20.4</ele>
        <time>2017-09-05T18:24:41Z</time>
      </trkpt>
      <trkpt lat="59.195848936026" lon="17.757047187195">
        <ele>20.2</ele>
        <time>2017-09-05T18:24:43Z</time>
      </trkpt>
      <trkpt lat="59.195923283479" lon="17.756966637136">
        <ele>20.2</ele>
        <time>2017-09-05T18:24:44Z</time>
      </trkpt>
      <trkpt lat="59.195994529629" lon="17.756882147584">
        <ele>20.2</ele>
        <time>2017-09-05T18:24:45Z</time>
      </trkpt>
      <trkpt lat="59.196060159906" lon="17.756786677743">
        <ele>19.8</ele>
        <time>2017-09-05T18:24:46Z</time>
      </trkpt>
      <trkpt lat="59.196116905369" lon="17.75667628812">
        <ele>19.8</ele>
        <time>2017-09-05T18:24:47Z</time>
      </trkpt>
      <trkpt lat="59.196213967771" lon="17.756433883572">
        <ele>20.2</ele>
        <time>2017-09-05T18:24:49Z</time>
      </trkpt>
      <trkpt lat="59.196256212547" lon="17.756304383217">
        <ele>20.2</ele>
        <time>2017-09-05T18:24:50Z</time>
      </trkpt>
      <trkpt lat="59.196293512002" lon="17.756170188998">
        <ele>20.4</ele>
        <time>2017-09-05T18:24:51Z</time>
      </trkpt>
      <trkpt lat="59.196356040976" lon="17.755898950714">
        <ele>20.4</ele>
        <time>2017-09-05T18:24:53Z</time>
      </trkpt>
      <trkpt lat="59.196410774783" lon="17.755626455145">
        <ele>20.8</ele>
        <time>2017-09-05T18:24:55Z</time>
      </trkpt>
      <trkpt lat="59.196433070637" lon="17.755492428564">
        <ele>21</ele>
        <time>2017-09-05T18:24:56Z</time>
      </trkpt>
      <trkpt lat="59.196453103378" lon="17.755359575449">
        <ele>21.4</ele>
        <time>2017-09-05T18:24:57Z</time>
      </trkpt>
      <trkpt lat="59.196490989566" lon="17.755107447897">
        <ele>21.8</ele>
        <time>2017-09-05T18:24:59Z</time>
      </trkpt>
      <trkpt lat="59.196526864098" lon="17.754876107457">
        <ele>22.4</ele>
        <time>2017-09-05T18:25:01Z</time>
      </trkpt>
      <trkpt lat="59.196563660639" lon="17.754665721767">
        <ele>23.6</ele>
        <time>2017-09-05T18:25:03Z</time>
      </trkpt>
      <trkpt lat="59.196606073053" lon="17.754460029941">
        <ele>24.2</ele>
        <time>2017-09-05T18:25:05Z</time>
      </trkpt>
      <trkpt lat="59.196657873195" lon="17.754243357826">
        <ele>25</ele>
        <time>2017-09-05T18:25:07Z</time>
      </trkpt>
      <trkpt lat="59.196720402169" lon="17.754037666">
        <ele>26</ele>
        <time>2017-09-05T18:25:09Z</time>
      </trkpt>
      <trkpt lat="59.196791648319" lon="17.753831555079">
        <ele>27.2</ele>
        <time>2017-09-05T18:25:11Z</time>
      </trkpt>
      <trkpt lat="59.196868761799" lon="17.753627120538">
        <ele>28</ele>
        <time>2017-09-05T18:25:13Z</time>
      </trkpt>
      <trkpt lat="59.196907821453" lon="17.753520754227">
        <ele>28.4</ele>
        <time>2017-09-05T18:25:14Z</time>
      </trkpt>
      <trkpt lat="59.196949898591" lon="17.753415812839">
        <ele>28.6</ele>
        <time>2017-09-05T18:25:15Z</time>
      </trkpt>
      <trkpt lat="59.197037489446" lon="17.753204002226">
        <ele>28.6</ele>
        <time>2017-09-05T18:25:17Z</time>
      </trkpt>
      <trkpt lat="59.197123990654" lon="17.752986994835">
        <ele>28.6</ele>
        <time>2017-09-05T18:25:19Z</time>
      </trkpt>
      <trkpt lat="59.197208061111" lon="17.75276194082">
        <ele>28.6</ele>
        <time>2017-09-05T18:25:21Z</time>
      </trkpt>
      <trkpt lat="59.197293137396" lon="17.752534623692">
        <ele>28.6</ele>
        <time>2017-09-05T18:25:23Z</time>
      </trkpt>
      <trkpt lat="59.197381482622" lon="17.752304959632">
        <ele>28.8</ele>
        <time>2017-09-05T18:25:25Z</time>
      </trkpt>
      <trkpt lat="59.197471839504" lon="17.752070182613">
        <ele>28.8</ele>
        <time>2017-09-05T18:25:27Z</time>
      </trkpt>
      <trkpt lat="59.197571165019" lon="17.751841692019">
        <ele>28.8</ele>
        <time>2017-09-05T18:25:29Z</time>
      </trkpt>
      <trkpt lat="59.19768507504" lon="17.751635329641">
        <ele>28.8</ele>
        <time>2017-09-05T18:25:31Z</time>
      </trkpt>
      <trkpt lat="59.19781331811" lon="17.751460650845">
        <ele>28.6</ele>
        <time>2017-09-05T18:25:33Z</time>
      </trkpt>
      <trkpt lat="59.197882552604" lon="17.7513889856">
        <ele>28.6</ele>
        <time>2017-09-05T18:25:34Z</time>
      </trkpt>
      <trkpt lat="59.197953966392" lon="17.751328216825">
        <ele>28.6</ele>
        <time>2017-09-05T18:25:35Z</time>
      </trkpt>
      <trkpt lat="59.19810249366" lon="17.751233585174">
        <ele>28.6</ele>
        <time>2017-09-05T18:25:37Z</time>
      </trkpt>
      <trkpt lat="59.198257474991" lon="17.751176839711">
        <ele>28.8</ele>
        <time>2017-09-05T18:25:39Z</time>
      </trkpt>
      <trkpt lat="59.198415054711" lon="17.751157477522">
        <ele>28.8</ele>
        <time>2017-09-05T18:25:41Z</time>
      </trkpt>
      <trkpt lat="59.198575065182" lon="17.75118111448">
        <ele>28.8</ele>
        <time>2017-09-05T18:25:43Z</time>
      </trkpt>
      <trkpt lat="59.198734824196" lon="17.751229310405">
        <ele>28.6</ele>
        <time>2017-09-05T18:25:45Z</time>
      </trkpt>
      <trkpt lat="59.198898019789" lon="17.751285217678">
        <ele>28.6</ele>
        <time>2017-09-05T18:25:47Z</time>
      </trkpt>
      <trkpt lat="59.198981335875" lon="17.75133282687">
        <ele>28.4</ele>
        <time>2017-09-05T18:25:48Z</time>
      </trkpt>
      <trkpt lat="59.199061718296" lon="17.751398624785">
        <ele>28.4</ele>
        <time>2017-09-05T18:25:49Z</time>
      </trkpt>
      <trkpt lat="59.199221561129" lon="17.751572297753">
        <ele>28.4</ele>
        <time>2017-09-05T18:25:51Z</time>
      </trkpt>
      <trkpt lat="59.199381990695" lon="17.75176700929">
        <ele>28</ele>
        <time>2017-09-05T18:25:53Z</time>
      </trkpt>
      <trkpt lat="59.199552059446" lon="17.75194051462">
        <ele>27.4</ele>
        <time>2017-09-05T18:25:55Z</time>
      </trkpt>
      <trkpt lat="59.199744340232" lon="17.752040007773">
        <ele>26.4</ele>
        <time>2017-09-05T18:25:57Z</time>
      </trkpt>
      <trkpt lat="59.199846599412" lon="17.752054592279">
        <ele>25.6</ele>
        <time>2017-09-05T18:25:58Z</time>
      </trkpt>
      <trkpt lat="59.199951289343" lon="17.752036487375">
        <ele>25.2</ele>
        <time>2017-09-05T18:25:59Z</time>
      </trkpt>
      <trkpt lat="59.200159998653" lon="17.751930037245">
        <ele>24.2</ele>
        <time>2017-09-05T18:26:01Z</time>
      </trkpt>
      <trkpt lat="59.200355213104" lon="17.751728201093">
        <ele>22.8</ele>
        <time>2017-09-05T18:26:03Z</time>
      </trkpt>
      <trkpt lat="59.200531149185" lon="17.751442965036">
        <ele>21.2</ele>
        <time>2017-09-05T18:26:05Z</time>
      </trkpt>
      <trkpt lat="59.200686130516" lon="17.751097798394">
        <ele>20.2</ele>
        <time>2017-09-05T18:26:07Z</time>
      </trkpt>
      <trkpt lat="59.20076877605" lon="17.750927562005">
        <ele>20</ele>
        <time>2017-09-05T18:26:08Z</time>
      </trkpt>
      <trkpt lat="59.200861060769" lon="17.750774759968">
        <ele>19.6</ele>
        <time>2017-09-05T18:26:09Z</time>
      </trkpt>
      <trkpt lat="59.20107220083" lon="17.750540402044">
        <ele>19</ele>
        <time>2017-09-05T18:26:11Z</time>
      </trkpt>
      <trkpt lat="59.201309492419" lon="17.750435628294">
        <ele>18.6</ele>
        <time>2017-09-05T18:26:13Z</time>
      </trkpt>
      <trkpt lat="59.201550974958" lon="17.750444010194">
        <ele>17.8</ele>
        <time>2017-09-05T18:26:15Z</time>
      </trkpt>
      <trkpt lat="59.201667399549" lon="17.750474352672">
        <ele>16.8</ele>
        <time>2017-09-05T18:26:16Z</time>
      </trkpt>
      <trkpt lat="59.201781477208" lon="17.75050469515">
        <ele>16.2</ele>
        <time>2017-09-05T18:26:17Z</time>
      </trkpt>
      <trkpt lat="59.20189278884" lon="17.750530427583">
        <ele>15.2</ele>
        <time>2017-09-05T18:26:18Z</time>
      </trkpt>
      <trkpt lat="59.202001585902" lon="17.750557584939">
        <ele>14.2</ele>
        <time>2017-09-05T18:26:19Z</time>
      </trkpt>
      <trkpt lat="59.202107784575" lon="17.750582563001">
        <ele>13.8</ele>
        <time>2017-09-05T18:26:20Z</time>
      </trkpt>
      <trkpt lat="59.202210295212" lon="17.750601338457">
        <ele>13.6</ele>
        <time>2017-09-05T18:26:21Z</time>
      </trkpt>
      <trkpt lat="59.202402240722" lon="17.750609133624">
        <ele>13.4</ele>
        <time>2017-09-05T18:26:23Z</time>
      </trkpt>
      <trkpt lat="59.202579685545" lon="17.75056672121">
        <ele>13.4</ele>
        <time>2017-09-05T18:26:25Z</time>
      </trkpt>
      <trkpt lat="59.20273768436" lon="17.750480974373">
        <ele>13.4</ele>
        <time>2017-09-05T18:26:27Z</time>
      </trkpt>
      <trkpt lat="59.202876404805" lon="17.75037645208">
        <ele>13.2</ele>
        <time>2017-09-05T18:26:29Z</time>
      </trkpt>
      <trkpt lat="59.202998948183" lon="17.750260195127">
        <ele>14</ele>
        <time>2017-09-05T18:26:31Z</time>
      </trkpt>
      <trkpt lat="59.203054939275" lon="17.750196995601">
        <ele>14.8</ele>
        <time>2017-09-05T18:26:32Z</time>
      </trkpt>
      <trkpt lat="59.203109337806" lon="17.750130694772">
        <ele>15.2</ele>
        <time>2017-09-05T18:26:33Z</time>
      </trkpt>
      <trkpt lat="59.20316516126" lon="17.750074619861">
        <ele>15.8</ele>
        <time>2017-09-05T18:26:34Z</time>
      </trkpt>
      <trkpt lat="59.203221739085" lon="17.750029273782">
        <ele>16.6</ele>
        <time>2017-09-05T18:26:35Z</time>
      </trkpt>
      <trkpt lat="59.2032791551" lon="17.749988956843">
        <ele>17.2</ele>
        <time>2017-09-05T18:26:36Z</time>
      </trkpt>
      <trkpt lat="59.203337912219" lon="17.749957189442">
        <ele>18</ele>
        <time>2017-09-05T18:26:37Z</time>
      </trkpt>
      <trkpt lat="59.20339901627" lon="17.749930032086">
        <ele>19.4</ele>
        <time>2017-09-05T18:26:38Z</time>
      </trkpt>
      <trkpt lat="59.203461629063" lon="17.749912011001">
        <ele>19.8</ele>
        <time>2017-09-05T18:26:39Z</time>
      </trkpt>
      <trkpt lat="59.203525666779" lon="17.74990622749">
        <ele>20.4</ele>
        <time>2017-09-05T18:26:40Z</time>
      </trkpt>
      <trkpt lat="59.203589117762" lon="17.749914022657">
        <ele>20.8</ele>
        <time>2017-09-05T18:26:41Z</time>
      </trkpt>
      <trkpt lat="59.203713421339" lon="17.749950735379">
        <ele>21.8</ele>
        <time>2017-09-05T18:26:43Z</time>
      </trkpt>
      <trkpt lat="59.203772681372" lon="17.749985939359">
        <ele>22.2</ele>
        <time>2017-09-05T18:26:44Z</time>
      </trkpt>
      <trkpt lat="59.203832192862" lon="17.750031704533">
        <ele>22.4</ele>
        <time>2017-09-05T18:26:45Z</time>
      </trkpt>
      <trkpt lat="59.203952556946" lon="17.750148715857">
        <ele>22.6</ele>
        <time>2017-09-05T18:26:47Z</time>
      </trkpt>
      <trkpt lat="59.204068227166" lon="17.750306295577">
        <ele>22.6</ele>
        <time>2017-09-05T18:26:49Z</time>
      </trkpt>
      <trkpt lat="59.204169731975" lon="17.750505952435">
        <ele>22.6</ele>
        <time>2017-09-05T18:26:51Z</time>
      </trkpt>
      <trkpt lat="59.204261597599" lon="17.750740477997">
        <ele>22.6</ele>
        <time>2017-09-05T18:26:53Z</time>
      </trkpt>
      <trkpt lat="59.204350529558" lon="17.750984726563">
        <ele>22.6</ele>
        <time>2017-09-05T18:26:55Z</time>
      </trkpt>
      <trkpt lat="59.204446921408" lon="17.751232998441">
        <ele>22.6</ele>
        <time>2017-09-05T18:26:57Z</time>
      </trkpt>
      <trkpt lat="59.204550605511" lon="17.751487137649">
        <ele>22.6</ele>
        <time>2017-09-05T18:26:59Z</time>
      </trkpt>
      <trkpt lat="59.204647751732" lon="17.751747982377">
        <ele>22.4</ele>
        <time>2017-09-05T18:27:01Z</time>
      </trkpt>
      <trkpt lat="59.204735761682" lon="17.752018717747">
        <ele>22.2</ele>
        <time>2017-09-05T18:27:03Z</time>
      </trkpt>
      <trkpt lat="59.204809270945" lon="17.752302277424">
        <ele>22</ele>
        <time>2017-09-05T18:27:05Z</time>
      </trkpt>
      <trkpt lat="59.204865094399" lon="17.752598745227">
        <ele>21.6</ele>
        <time>2017-09-05T18:27:07Z</time>
      </trkpt>
      <trkpt lat="59.20488596533" lon="17.752752636911">
        <ele>21.2</ele>
        <time>2017-09-05T18:27:08Z</time>
      </trkpt>
      <trkpt lat="59.204898454361" lon="17.752910384269">
        <ele>20.8</ele>
        <time>2017-09-05T18:27:09Z</time>
      </trkpt>
      <trkpt lat="59.204896945619" lon="17.753228225917">
        <ele>20.4</ele>
        <time>2017-09-05T18:27:11Z</time>
      </trkpt>
      <trkpt lat="59.204882947846" lon="17.753542966262">
        <ele>20.2</ele>
        <time>2017-09-05T18:27:13Z</time>
      </trkpt>
    </trkseg>
  </trk>
</gpx>